Time,TemperatureF,DewpointF,PressureIn,WindDirection,WindDirectionDegrees,WindSpeedMPH,WindSpeedGustMPH,Humidity,HourlyPrecipIn,Conditions,Clouds,dailyrainin,SoftwareType,DateUTC
2013-07-29 09:47:00,67.0,55.6,30.10,ESE,114,0.0,0.0,67,-99.99,,,-99.99,VWS V14.01,2013-07-29 13:47:00,
2013-07-29 09:48:00,67.0,55.6,30.10,ESE,114,0.0,0.0,67,-99.99,,,-99.99,VWS V14.01,2013-07-29 13:48:00,
2013-07-29 09:49:00,67.0,55.7,30.10,ESE,114,0.0,0.0,67,-99.99,,,-99.99,VWS V14.01,2013-07-29 13:49:00,
2013-07-29 09:50:00,67.1,55.9,30.10,ESE,114,0.0,0.0,67,-99.99,,,-99.99,VWS V14.01,2013-07-29 13:50:00,
2013-07-29 09:51:00,67.1,55.8,30.10,ESE,114,0.0,0.0,67,-99.99,,,-99.99,VWS V14.01,2013-07-29 13:51:00,
2013-07-29 09:52:00,67.0,55.1,30.10,NNW,338,7.2,8.4,66,-99.99,,,-99.99,VWS V14.01,2013-07-29 13:52:00,
2013-07-29 09:53:00,67.1,55.1,30.10,NW,312,3.4,8.4,65,-99.99,,,-99.99,VWS V14.01,2013-07-29 13:53:00,
2013-07-29 09:54:00,67.1,55.0,30.10,NW,312,0.0,3.4,65,-99.99,,,-99.99,VWS V14.01,2013-07-29 13:54:00,
2013-07-29 09:55:00,67.2,55.1,30.10,NW,312,0.0,0.0,65,-99.99,,,-99.99,VWS V14.01,2013-07-29 13:55:00,
2013-07-29 09:56:00,67.3,55.3,30.10,NW,312,0.0,0.0,65,-99.99,,,-99.99,VWS V14.01,2013-07-29 13:56:00,
2013-07-29 09:57:00,67.3,55.4,30.11,NW,312,0.0,0.0,66,-99.99,,,-99.99,VWS V14.01,2013-07-29 13:57:00,
2013-07-29 09:58:00,67.4,55.5,30.11,NW,312,0.0,0.0,66,-99.99,,,-99.99,VWS V14.01,2013-07-29 13:58:00,
2013-07-29 09:59:00,67.5,55.5,30.11,NW,312,0.0,0.0,65,-99.99,,,-99.99,VWS V14.01,2013-07-29 13:59:00,
2013-07-29 10:00:00,67.6,55.4,30.10,NW,312,0.0,0.0,65,-99.99,,,-99.99,VWS V14.01,2013-07-29 14:00:00,
2013-07-29 10:01:00,67.7,55.0,30.10,NW,312,0.0,0.0,64,-99.99,,,-99.99,VWS V14.01,2013-07-29 14:01:00,
2013-07-29 10:02:00,67.6,55.0,30.10,NW,312,0.0,0.0,64,-99.99,,,-99.99,VWS V14.01,2013-07-29 14:02:00,
2013-07-29 10:03:00,67.5,55.0,30.10,NW,312,0.0,0.0,64,-99.99,,,-99.99,VWS V14.01,2013-07-29 14:03:00,
2013-07-29 10:04:00,67.6,55.1,30.10,NW,312,0.0,0.0,64,-99.99,,,-99.99,VWS V14.01,2013-07-29 14:04:00,
2013-07-29 10:05:00,67.6,55.0,30.11,NW,312,0.0,0.0,64,-99.99,,,-99.99,VWS V14.01,2013-07-29 14:05:00,
2013-07-29 10:06:00,67.6,55.4,30.11,North,357,9.1,10.7,65,-99.99,,,-99.99,VWS V14.01,2013-07-29 14:06:00,
2013-07-29 10:07:00,67.6,53.9,30.11,WNW,283,0.0,0.0,62,-99.99,,,-99.99,VWS V14.01,2013-07-29 14:07:00,
2013-07-29 10:08:00,67.7,54.0,30.11,WNW,302,4.7,5.2,62,-99.99,,,-99.99,VWS V14.01,2013-07-29 14:08:00,
2013-07-29 10:09:00,67.8,54.3,30.11,NNW,330,4.5,7.3,62,-99.99,,,-99.99,VWS V14.01,2013-07-29 14:09:00,
2013-07-29 10:10:00,67.9,54.2,30.11,West,264,0.0,6.1,61,-99.99,,,-99.99,VWS V14.01,2013-07-29 14:10:00,
2013-07-29 10:11:00,68.0,54.4,30.11,NW,312,6.8,7.8,62,-99.99,,,-99.99,VWS V14.01,2013-07-29 14:11:00,
2013-07-29 10:12:00,68.1,54.4,30.11,NW,322,0.0,3.2,62,-99.99,,,-99.99,VWS V14.01,2013-07-29 14:12:00,
2013-07-29 10:13:00,68.0,54.3,30.11,NW,322,0.0,3.2,62,-99.99,,,-99.99,VWS V14.01,2013-07-29 14:13:00,
2013-07-29 10:14:00,68.2,54.3,30.11,NW,322,0.0,0.0,61,-99.99,,,-99.99,VWS V14.01,2013-07-29 14:14:00,
2013-07-29 10:15:00,68.4,54.9,30.11,NW,314,3.3,3.3,62,-99.99,,,-99.99,VWS V14.01,2013-07-29 14:15:00,
2013-07-29 10:16:00,68.4,54.9,30.11,WNW,288,0.0,6.4,62,-99.99,,,-99.99,VWS V14.01,2013-07-29 14:16:00,
2013-07-29 10:17:00,68.6,54.7,30.11,WNW,300,6.3,6.3,61,-99.99,,,-99.99,VWS V14.01,2013-07-29 14:17:00,
2013-07-29 10:18:00,68.6,54.8,30.11,NW,316,3.0,6.3,61,-99.99,,,-99.99,VWS V14.01,2013-07-29 14:18:00,
2013-07-29 10:19:00,68.6,54.8,30.11,NW,316,0.0,3.0,61,-99.99,,,-99.99,VWS V14.01,2013-07-29 14:19:00,
2013-07-29 10:20:00,68.6,53.7,30.10,NW,316,0.0,0.0,59,-99.99,,,-99.99,VWS V14.01,2013-07-29 14:20:00,
2013-07-29 10:21:00,68.5,54.3,30.11,NW,316,0.0,0.0,60,-99.99,,,-99.99,VWS V14.01,2013-07-29 14:21:00,
2013-07-29 10:22:00,68.7,55.1,30.11,NW,319,7.0,8.6,62,-99.99,,,-99.99,VWS V14.01,2013-07-29 14:22:00,
2013-07-29 10:23:00,68.7,55.1,30.11,NW,304,3.4,8.6,62,-99.99,,,-99.99,VWS V14.01,2013-07-29 14:23:00,
2013-07-29 10:24:00,68.8,54.0,30.10,NW,304,5.5,5.5,59,-99.99,,,-99.99,VWS V14.01,2013-07-29 14:24:00,
2013-07-29 10:25:00,68.8,54.2,30.11,NNW,342,5.5,7.1,60,-99.99,,,-99.99,VWS V14.01,2013-07-29 14:25:00,
2013-07-29 10:26:00,68.9,54.4,30.11,WNW,283,7.4,11.0,60,-99.99,,,-99.99,VWS V14.01,2013-07-29 14:26:00,
2013-07-29 10:27:00,69.0,54.3,30.11,NNW,343,0.0,4.5,59,-99.99,,,-99.99,VWS V14.01,2013-07-29 14:27:00,
2013-07-29 10:28:00,69.0,54.3,30.11,NNW,343,0.0,4.5,59,-99.99,,,-99.99,VWS V14.01,2013-07-29 14:28:00,
2013-07-29 10:29:00,69.0,54.3,30.11,NNW,343,0.0,3.0,59,-99.99,,,-99.99,VWS V14.01,2013-07-29 14:29:00,
2013-07-29 10:30:00,69.1,54.6,30.11,NW,312,4.2,6.4,60,-99.99,,,-99.99,VWS V14.01,2013-07-29 14:30:00,
2013-07-29 10:31:00,69.1,54.5,30.11,NNW,336,0.0,6.3,60,-99.99,,,-99.99,VWS V14.01,2013-07-29 14:31:00,
2013-07-29 10:32:00,69.0,54.4,30.11,WNW,298,0.0,3.4,60,-99.99,,,-99.99,VWS V14.01,2013-07-29 14:32:00,
2013-07-29 10:33:00,69.0,54.4,30.11,WNW,298,0.0,3.4,60,-99.99,,,-99.99,VWS V14.01,2013-07-29 14:33:00,
2013-07-29 10:34:00,69.0,54.7,30.11,West,267,4.5,9.3,60,-99.99,,,-99.99,VWS V14.01,2013-07-29 14:34:00,
2013-07-29 10:35:00,69.0,54.5,30.11,WNW,294,0.0,13.9,60,-99.99,,,-99.99,VWS V14.01,2013-07-29 14:35:00,
2013-07-29 10:36:00,68.9,54.3,30.11,WNW,294,0.0,0.0,60,-99.99,,,-99.99,VWS V14.01,2013-07-29 14:36:00,
2013-07-29 10:37:00,69.0,54.4,30.11,WNW,297,5.6,10.3,60,-99.99,,,-99.99,VWS V14.01,2013-07-29 14:37:00,
2013-07-29 10:38:00,69.0,54.4,30.11,WNW,297,5.6,10.3,60,-99.99,,,-99.99,VWS V14.01,2013-07-29 14:38:00,
2013-07-29 10:39:00,68.9,54.1,30.11,NNW,328,3.4,9.6,59,-99.99,,,-99.99,VWS V14.01,2013-07-29 14:39:00,
2013-07-29 10:40:00,68.9,54.0,30.11,NNW,328,0.0,3.4,59,-99.99,,,-99.99,VWS V14.01,2013-07-29 14:40:00,
2013-07-29 10:41:00,68.9,54.1,30.11,NNW,328,0.0,0.0,59,-99.99,,,-99.99,VWS V14.01,2013-07-29 14:41:00,
2013-07-29 10:42:00,68.8,53.8,30.11,WNW,287,0.0,0.0,59,-99.99,,,-99.99,VWS V14.01,2013-07-29 14:42:00,
2013-07-29 10:43:00,68.8,53.8,30.11,WNW,287,0.0,0.0,59,-99.99,,,-99.99,VWS V14.01,2013-07-29 14:43:00,
2013-07-29 10:44:00,68.8,54.3,30.11,WNW,287,0.0,0.0,60,-99.99,,,-99.99,VWS V14.01,2013-07-29 14:44:00,
2013-07-29 10:45:00,68.8,54.4,30.11,WNW,287,0.0,0.0,60,-99.99,,,-99.99,VWS V14.01,2013-07-29 14:45:00,
2013-07-29 10:46:00,68.8,54.6,30.11,NW,304,6.3,8.4,61,-99.99,,,-99.99,VWS V14.01,2013-07-29 14:46:00,
2013-07-29 10:47:00,68.7,53.6,30.11,North,356,0.0,6.2,59,-99.99,,,-99.99,VWS V14.01,2013-07-29 14:47:00,
2013-07-29 10:48:00,68.7,53.6,30.11,North,356,0.0,6.2,59,-99.99,,,-99.99,VWS V14.01,2013-07-29 14:48:00,
2013-07-29 10:49:00,68.7,54.0,30.11,NW,311,6.5,10.3,60,-99.99,,,-99.99,VWS V14.01,2013-07-29 14:49:00,
2013-07-29 10:50:00,68.5,53.7,30.12,North,359,0.0,6.8,59,-99.99,,,-99.99,VWS V14.01,2013-07-29 14:50:00,
2013-07-29 10:51:00,68.4,53.7,30.11,North,359,0.0,0.0,59,-99.99,,,-99.99,VWS V14.01,2013-07-29 14:51:00,
2013-07-29 10:52:00,68.6,54.1,30.11,North,359,0.0,0.0,60,-99.99,,,-99.99,VWS V14.01,2013-07-29 14:52:00,
2013-07-29 10:53:00,68.6,54.1,30.11,North,359,0.0,0.0,60,-99.99,,,-99.99,VWS V14.01,2013-07-29 14:53:00,
2013-07-29 10:54:00,68.6,54.2,30.12,North,359,0.0,0.0,60,-99.99,,,-99.99,VWS V14.01,2013-07-29 14:54:00,
2013-07-29 10:55:00,68.7,54.4,30.12,North,359,0.0,3.4,60,-99.99,,,-99.99,VWS V14.01,2013-07-29 14:55:00,
2013-07-29 10:56:00,68.7,54.3,30.12,North,359,0.0,0.0,60,-99.99,,,-99.99,VWS V14.01,2013-07-29 14:56:00,
2013-07-29 10:57:00,68.7,54.0,30.12,West,271,5.3,5.8,59,-99.99,,,-99.99,VWS V14.01,2013-07-29 14:57:00,
2013-07-29 10:58:00,68.7,54.0,30.12,WNW,292,0.0,7.3,59,-99.99,,,-99.99,VWS V14.01,2013-07-29 14:58:00,
2013-07-29 10:59:00,68.7,54.0,30.12,WNW,301,6.8,11.0,59,-99.99,,,-99.99,VWS V14.01,2013-07-29 14:59:00,
2013-07-29 11:00:00,68.6,53.6,30.12,NNW,340,8.0,13.5,59,-99.99,,,-99.99,VWS V14.01,2013-07-29 15:00:00,
2013-07-29 11:01:00,68.7,53.7,30.12,South,187,5.4,9.4,59,-99.99,,,-99.99,VWS V14.01,2013-07-29 15:01:00,
2013-07-29 11:02:00,68.7,53.5,30.12,WNW,290,0.0,5.7,58,-99.99,,,-99.99,VWS V14.01,2013-07-29 15:02:00,
2013-07-29 11:03:00,68.6,53.8,30.12,NW,314,0.0,6.4,59,-99.99,,,-99.99,VWS V14.01,2013-07-29 15:03:00,
2013-07-29 11:04:00,68.6,53.9,30.12,WSW,242,0.0,6.4,59,-99.99,,,-99.99,VWS V14.01,2013-07-29 15:04:00,
2013-07-29 11:05:00,68.6,54.0,30.12,WSW,242,0.0,0.0,60,-99.99,,,-99.99,VWS V14.01,2013-07-29 15:05:00,
2013-07-29 11:06:00,68.6,53.9,30.12,WSW,242,0.0,0.0,59,-99.99,,,-99.99,VWS V14.01,2013-07-29 15:06:00,
2013-07-29 11:07:00,68.5,53.8,30.12,WSW,242,0.0,0.0,59,-99.99,,,-99.99,VWS V14.01,2013-07-29 15:07:00,
2013-07-29 11:08:00,68.6,54.1,30.12,WSW,242,0.0,0.0,60,-99.99,,,-99.99,VWS V14.01,2013-07-29 15:08:00,
2013-07-29 11:09:00,68.7,54.4,30.12,WSW,242,0.0,0.0,60,-99.99,,,-99.99,VWS V14.01,2013-07-29 15:09:00,
2013-07-29 11:10:00,68.7,54.5,30.12,WSW,242,0.0,0.0,60,-99.99,,,-99.99,VWS V14.01,2013-07-29 15:10:00,
2013-07-29 11:11:00,68.8,53.9,30.12,WSW,255,0.0,5.7,59,-99.99,,,-99.99,VWS V14.01,2013-07-29 15:11:00,
2013-07-29 11:12:00,68.8,53.2,30.12,WSW,255,0.0,0.0,58,-99.99,,,-99.99,VWS V14.01,2013-07-29 15:12:00,
2013-07-29 11:13:00,68.9,53.6,30.12,WSW,255,0.0,0.0,58,-99.99,,,-99.99,VWS V14.01,2013-07-29 15:13:00,
2013-07-29 11:14:00,68.9,53.9,30.12,WSW,255,0.0,0.0,59,-99.99,,,-99.99,VWS V14.01,2013-07-29 15:14:00,
2013-07-29 11:15:00,69.1,53.9,30.12,WSW,255,0.0,3.4,58,-99.99,,,-99.99,VWS V14.01,2013-07-29 15:15:00,
2013-07-29 11:16:00,69.1,54.0,30.12,SSW,211,0.0,4.9,59,-99.99,,,-99.99,VWS V14.01,2013-07-29 15:16:00,
2013-07-29 11:17:00,69.2,54.0,30.12,West,273,0.0,5.5,58,-99.99,,,-99.99,VWS V14.01,2013-07-29 15:17:00,
2013-07-29 11:18:00,69.4,53.7,30.12,SW,229,0.0,6.7,57,-99.99,,,-99.99,VWS V14.01,2013-07-29 15:18:00,
2013-07-29 11:19:00,69.4,53.7,30.12,SW,229,0.0,6.7,57,-99.99,,,-99.99,VWS V14.01,2013-07-29 15:19:00,
2013-07-29 11:20:00,69.5,53.7,30.12,West,267,0.0,8.3,57,-99.99,,,-99.99,VWS V14.01,2013-07-29 15:20:00,
2013-07-29 11:21:00,69.6,53.9,30.12,West,259,4.3,7.5,57,-99.99,,,-99.99,VWS V14.01,2013-07-29 15:21:00,
2013-07-29 11:22:00,69.7,54.0,30.12,NNW,340,0.0,4.4,57,-99.99,,,-99.99,VWS V14.01,2013-07-29 15:22:00,
2013-07-29 11:23:00,69.7,54.0,30.12,North,352,0.0,3.4,57,-99.99,,,-99.99,VWS V14.01,2013-07-29 15:23:00,
2013-07-29 11:24:00,69.8,54.3,30.12,North,352,0.0,3.4,58,-99.99,,,-99.99,VWS V14.01,2013-07-29 15:24:00,
2013-07-29 11:25:00,69.8,54.1,30.12,WNW,295,5.2,9.8,57,-99.99,,,-99.99,VWS V14.01,2013-07-29 15:25:00,
2013-07-29 11:26:00,69.9,53.1,30.12,NW,321,5.7,5.8,55,-99.99,,,-99.99,VWS V14.01,2013-07-29 15:26:00,
2013-07-29 11:27:00,69.8,53.5,30.12,West,263,0.0,5.8,56,-99.99,,,-99.99,VWS V14.01,2013-07-29 15:27:00,
2013-07-29 11:28:00,69.9,53.5,30.12,NW,309,3.4,7.1,56,-99.99,,,-99.99,VWS V14.01,2013-07-29 15:28:00,
2013-07-29 11:29:00,69.9,53.5,30.12,NW,309,1.9,7.1,56,-99.99,,,-99.99,VWS V14.01,2013-07-29 15:29:00,
2013-07-29 11:30:00,69.9,53.7,30.12,WNW,290,0.0,3.1,56,-99.99,,,-99.99,VWS V14.01,2013-07-29 15:30:00,
2013-07-29 11:31:00,69.9,53.6,30.12,NNW,333,4.8,8.7,56,-99.99,,,-99.99,VWS V14.01,2013-07-29 15:31:00,
2013-07-29 11:32:00,69.9,53.2,30.12,WNW,290,0.0,6.4,55,-99.99,,,-99.99,VWS V14.01,2013-07-29 15:32:00,
2013-07-29 11:33:00,69.7,53.2,30.12,North,11,7.5,9.6,56,-99.99,,,-99.99,VWS V14.01,2013-07-29 15:33:00,
2013-07-29 11:34:00,69.7,53.2,30.12,North,354,6.6,9.6,56,-99.99,,,-99.99,VWS V14.01,2013-07-29 15:34:00,
2013-07-29 11:35:00,69.5,53.1,30.12,WNW,288,6.3,8.8,56,-99.99,,,-99.99,VWS V14.01,2013-07-29 15:35:00,
2013-07-29 11:36:00,69.5,53.3,30.12,WSW,239,0.0,6.5,56,-99.99,,,-99.99,VWS V14.01,2013-07-29 15:36:00,
2013-07-29 11:37:00,69.3,53.3,30.12,WSW,239,0.0,0.0,57,-99.99,,,-99.99,VWS V14.01,2013-07-29 15:37:00,
2013-07-29 11:38:00,69.2,53.5,30.12,WNW,295,3.2,4.7,57,-99.99,,,-99.99,VWS V14.01,2013-07-29 15:38:00,
2013-07-29 11:39:00,69.2,53.5,30.12,NW,309,4.5,5.7,57,-99.99,,,-99.99,VWS V14.01,2013-07-29 15:39:00,
2013-07-29 11:40:00,69.2,53.6,30.12,WNW,295,0.0,4.7,58,-99.99,,,-99.99,VWS V14.01,2013-07-29 15:40:00,
2013-07-29 11:41:00,69.2,53.7,30.12,WNW,295,0.0,0.0,58,-99.99,,,-99.99,VWS V14.01,2013-07-29 15:41:00,
2013-07-29 11:42:00,69.1,53.8,30.12,North,359,6.2,6.7,58,-99.99,,,-99.99,VWS V14.01,2013-07-29 15:42:00,
2013-07-29 11:43:00,69.1,53.8,30.12,West,263,4.2,9.1,58,-99.99,,,-99.99,VWS V14.01,2013-07-29 15:43:00,
2013-07-29 11:44:00,69.1,53.9,30.12,West,263,0.0,0.0,58,-99.99,,,-99.99,VWS V14.01,2013-07-29 15:44:00,
2013-07-29 11:45:00,69.1,53.8,30.12,West,263,0.0,0.0,58,-99.99,,,-99.99,VWS V14.01,2013-07-29 15:45:00,
2013-07-29 11:46:00,69.2,53.9,30.12,West,263,0.0,0.0,58,-99.99,,,-99.99,VWS V14.01,2013-07-29 15:46:00,
2013-07-29 11:47:00,69.2,53.9,30.12,West,263,0.0,0.0,58,-99.99,,,-99.99,VWS V14.01,2013-07-29 15:47:00,
2013-07-29 11:48:00,69.2,54.1,30.12,WSW,243,5.1,7.0,59,-99.99,,,-99.99,VWS V14.01,2013-07-29 15:48:00,
2013-07-29 11:49:00,69.4,54.0,30.12,North,359,0.0,7.9,58,-99.99,,,-99.99,VWS V14.01,2013-07-29 15:49:00,
2013-07-29 11:50:00,69.4,53.8,30.12,WSW,248,4.7,7.9,58,-99.99,,,-99.99,VWS V14.01,2013-07-29 15:50:00,
2013-07-29 11:51:00,69.5,53.6,30.12,NW,308,3.4,7.3,57,-99.99,,,-99.99,VWS V14.01,2013-07-29 15:51:00,
2013-07-29 11:52:00,69.6,53.5,30.12,West,264,0.0,4.5,56,-99.99,,,-99.99,VWS V14.01,2013-07-29 15:52:00,
2013-07-29 11:53:00,69.7,53.3,30.12,West,264,0.0,0.0,56,-99.99,,,-99.99,VWS V14.01,2013-07-29 15:53:00,
2013-07-29 11:54:00,69.9,53.5,30.12,West,264,0.0,0.0,56,-99.99,,,-99.99,VWS V14.01,2013-07-29 15:54:00,
2013-07-29 11:55:00,69.8,53.5,30.12,West,264,0.0,0.0,56,-99.99,,,-99.99,VWS V14.01,2013-07-29 15:55:00,
2013-07-29 11:56:00,70.0,53.8,30.12,West,264,0.0,0.0,56,-99.99,,,-99.99,VWS V14.01,2013-07-29 15:56:00,
2013-07-29 11:57:00,70.0,53.7,30.12,West,264,0.0,0.0,56,-99.99,,,-99.99,VWS V14.01,2013-07-29 15:57:00,
2013-07-29 11:58:00,70.2,53.9,30.12,NW,323,0.0,3.4,56,-99.99,,,-99.99,VWS V14.01,2013-07-29 15:58:00,
2013-07-29 11:59:00,70.3,53.6,30.12,WNW,283,3.3,9.4,55,-99.99,,,-99.99,VWS V14.01,2013-07-29 15:59:00,
2013-07-29 12:00:00,70.4,53.7,30.12,WNW,302,4.3,9.4,56,-99.99,,,-99.99,VWS V14.01,2013-07-29 16:00:00,
2013-07-29 12:01:00,70.4,53.6,30.12,WSW,238,5.5,10.3,55,-99.99,,,-99.99,VWS V14.01,2013-07-29 16:01:00,
2013-07-29 12:02:00,70.4,52.9,30.12,NNW,339,8.7,8.7,54,-99.99,,,-99.99,VWS V14.01,2013-07-29 16:02:00,
2013-07-29 12:03:00,70.3,52.9,30.12,NW,326,0.0,9.1,54,-99.99,,,-99.99,VWS V14.01,2013-07-29 16:03:00,
2013-07-29 12:04:00,70.3,52.6,30.12,WNW,285,5.6,12.2,54,-99.99,,,-99.99,VWS V14.01,2013-07-29 16:04:00,
2013-07-29 12:05:00,70.3,52.6,30.12,West,280,7.1,12.2,54,-99.99,,,-99.99,VWS V14.01,2013-07-29 16:05:00,
2013-07-29 12:06:00,70.3,52.6,30.12,SSW,198,6.5,8.0,54,-99.99,,,-99.99,VWS V14.01,2013-07-29 16:06:00,
2013-07-29 12:07:00,70.2,52.8,30.12,WNW,302,5.1,7.8,54,-99.99,,,-99.99,VWS V14.01,2013-07-29 16:07:00,
2013-07-29 12:08:00,70.3,53.1,30.12,NW,325,5.4,6.5,54,-99.99,,,-99.99,VWS V14.01,2013-07-29 16:08:00,
2013-07-29 12:09:00,70.3,53.3,30.13,WSW,245,2.4,8.9,55,-99.99,,,-99.99,VWS V14.01,2013-07-29 16:09:00,
2013-07-29 12:10:00,70.3,53.3,30.12,WSW,245,2.4,8.9,55,-99.99,,,-99.99,VWS V14.01,2013-07-29 16:10:00,
2013-07-29 12:11:00,70.2,53.3,30.12,WNW,302,5.1,8.1,55,-99.99,,,-99.99,VWS V14.01,2013-07-29 16:11:00,
2013-07-29 12:12:00,70.3,53.4,30.12,SW,236,0.0,5.2,55,-99.99,,,-99.99,VWS V14.01,2013-07-29 16:12:00,
2013-07-29 12:13:00,70.2,53.3,30.12,WNW,298,0.0,2.9,55,-99.99,,,-99.99,VWS V14.01,2013-07-29 16:13:00,
2013-07-29 12:14:00,70.4,53.6,30.12,SW,218,0.0,5.2,55,-99.99,,,-99.99,VWS V14.01,2013-07-29 16:14:00,
2013-07-29 12:15:00,70.5,53.3,30.12,SW,218,0.0,0.0,54,-99.99,,,-99.99,VWS V14.01,2013-07-29 16:15:00,
2013-07-29 12:16:00,70.4,52.7,30.12,SW,218,0.0,0.0,53,-99.99,,,-99.99,VWS V14.01,2013-07-29 16:16:00,
2013-07-29 12:17:00,70.3,52.6,30.12,SW,218,0.0,2.7,54,-99.99,,,-99.99,VWS V14.01,2013-07-29 16:17:00,
2013-07-29 12:18:00,70.4,52.9,30.12,NNW,335,5.7,5.9,54,-99.99,,,-99.99,VWS V14.01,2013-07-29 16:18:00,
2013-07-29 12:19:00,70.4,53.0,30.12,WNW,302,0.0,6.5,54,-99.99,,,-99.99,VWS V14.01,2013-07-29 16:19:00,
2013-07-29 12:20:00,70.3,53.1,30.12,WNW,302,0.0,0.0,54,-99.99,,,-99.99,VWS V14.01,2013-07-29 16:20:00,
2013-07-29 12:21:00,70.3,53.1,30.12,WNW,302,0.0,0.0,54,-99.99,,,-99.99,VWS V14.01,2013-07-29 16:21:00,
2013-07-29 12:22:00,70.3,53.0,30.12,West,280,0.0,6.0,54,-99.99,,,-99.99,VWS V14.01,2013-07-29 16:22:00,
2013-07-29 12:23:00,70.3,53.5,30.12,NW,309,7.0,11.8,55,-99.99,,,-99.99,VWS V14.01,2013-07-29 16:23:00,
2013-07-29 12:24:00,70.4,53.7,30.13,NW,319,3.1,7.0,55,-99.99,,,-99.99,VWS V14.01,2013-07-29 16:24:00,
2013-07-29 12:25:00,70.4,53.6,30.13,WNW,288,0.0,2.4,55,-99.99,,,-99.99,VWS V14.01,2013-07-29 16:25:00,
2013-07-29 12:26:00,70.3,53.5,30.12,SW,214,2.6,4.2,55,-99.99,,,-99.99,VWS V14.01,2013-07-29 16:26:00,
2013-07-29 12:27:00,70.2,53.7,30.13,NW,307,7.0,7.0,56,-99.99,,,-99.99,VWS V14.01,2013-07-29 16:27:00,
2013-07-29 12:28:00,70.3,53.9,30.13,SW,226,4.3,9.0,56,-99.99,,,-99.99,VWS V14.01,2013-07-29 16:28:00,
2013-07-29 12:29:00,70.2,54.0,30.13,NW,315,3.2,6.1,56,-99.99,,,-99.99,VWS V14.01,2013-07-29 16:29:00,
2013-07-29 12:30:00,70.2,54.1,30.13,WSW,246,3.5,6.5,57,-99.99,,,-99.99,VWS V14.01,2013-07-29 16:30:00,
2013-07-29 12:31:00,70.1,53.7,30.13,NNW,333,0.0,6.5,56,-99.99,,,-99.99,VWS V14.01,2013-07-29 16:31:00,
2013-07-29 12:32:00,69.9,53.8,30.12,NNW,333,0.0,0.0,56,-99.99,,,-99.99,VWS V14.01,2013-07-29 16:32:00,
2013-07-29 12:33:00,69.9,54.1,30.13,WNW,287,6.5,9.3,57,-99.99,,,-99.99,VWS V14.01,2013-07-29 16:33:00,
2013-07-29 12:34:00,69.8,54.1,30.13,NNW,346,5.8,9.3,58,-99.99,,,-99.99,VWS V14.01,2013-07-29 16:34:00,
2013-07-29 12:35:00,69.8,54.0,30.13,WSW,249,0.0,5.4,57,-99.99,,,-99.99,VWS V14.01,2013-07-29 16:35:00,
2013-07-29 12:36:00,69.7,54.0,30.13,WSW,249,0.0,5.4,57,-99.99,,,-99.99,VWS V14.01,2013-07-29 16:36:00,
2013-07-29 12:37:00,69.7,54.0,30.13,NW,309,6.3,7.9,58,-99.99,,,-99.99,VWS V14.01,2013-07-29 16:37:00,
2013-07-29 12:38:00,69.7,53.8,30.13,NW,311,6.2,10.0,57,-99.99,,,-99.99,VWS V14.01,2013-07-29 16:38:00,
2013-07-29 12:39:00,69.6,53.7,30.13,North,10,7.8,9.5,57,-99.99,,,-99.99,VWS V14.01,2013-07-29 16:39:00,
2013-07-29 12:40:00,69.5,53.4,30.13,West,281,0.0,5.5,56,-99.99,,,-99.99,VWS V14.01,2013-07-29 16:40:00,
2013-07-29 12:41:00,69.5,53.5,30.13,WSW,257,4.5,6.7,57,-99.99,,,-99.99,VWS V14.01,2013-07-29 16:41:00,
2013-07-29 12:42:00,69.5,53.6,30.13,NNE,32,0.0,5.1,57,-99.99,,,-99.99,VWS V14.01,2013-07-29 16:42:00,
2013-07-29 12:43:00,69.4,53.7,30.13,WNW,291,0.0,5.2,57,-99.99,,,-99.99,VWS V14.01,2013-07-29 16:43:00,
2013-07-29 12:44:00,69.3,53.2,30.13,WNW,292,0.0,2.8,57,-99.99,,,-99.99,VWS V14.01,2013-07-29 16:44:00,
2013-07-29 12:45:00,69.3,53.9,30.13,WNW,292,0.0,0.0,58,-99.99,,,-99.99,VWS V14.01,2013-07-29 16:45:00,
2013-07-29 12:46:00,69.3,53.9,30.13,NNW,342,2.6,3.5,58,-99.99,,,-99.99,VWS V14.01,2013-07-29 16:46:00,
2013-07-29 12:47:00,69.3,53.7,30.13,NNW,335,0.0,6.4,58,-99.99,,,-99.99,VWS V14.01,2013-07-29 16:47:00,
2013-07-29 12:48:00,69.1,53.4,30.13,NNW,335,0.0,0.0,57,-99.99,,,-99.99,VWS V14.01,2013-07-29 16:48:00,
2013-07-29 12:49:00,69.2,53.8,30.13,NNW,335,0.0,0.0,58,-99.99,,,-99.99,VWS V14.01,2013-07-29 16:49:00,
2013-07-29 12:50:00,69.0,53.0,30.13,NNW,335,0.0,0.0,57,-99.99,,,-99.99,VWS V14.01,2013-07-29 16:50:00,
2013-07-29 12:51:00,69.2,53.5,30.13,NNW,335,0.0,0.0,57,-99.99,,,-99.99,VWS V14.01,2013-07-29 16:51:00,
2013-07-29 12:52:00,69.0,53.3,30.13,SW,221,3.1,4.7,57,-99.99,,,-99.99,VWS V14.01,2013-07-29 16:52:00,
2013-07-29 12:53:00,69.1,53.4,30.13,West,264,0.0,5.6,57,-99.99,,,-99.99,VWS V14.01,2013-07-29 16:53:00,
2013-07-29 12:54:00,69.1,53.6,30.13,West,264,0.0,0.0,58,-99.99,,,-99.99,VWS V14.01,2013-07-29 16:54:00,
2013-07-29 12:55:00,69.2,53.7,30.13,WNW,295,0.0,0.0,58,-99.99,,,-99.99,VWS V14.01,2013-07-29 16:55:00,
2013-07-29 12:56:00,69.2,53.5,30.13,WNW,295,0.0,0.0,57,-99.99,,,-99.99,VWS V14.01,2013-07-29 16:56:00,
2013-07-29 12:57:00,69.2,53.7,30.13,SSE,167,0.0,4.9,58,-99.99,,,-99.99,VWS V14.01,2013-07-29 16:57:00,
2013-07-29 12:58:00,69.3,53.3,30.13,NW,308,0.0,6.1,57,-99.99,,,-99.99,VWS V14.01,2013-07-29 16:58:00,
2013-07-29 12:59:00,69.5,53.4,30.13,NW,308,0.0,0.0,57,-99.99,,,-99.99,VWS V14.01,2013-07-29 16:59:00,
2013-07-29 13:00:00,69.7,53.6,30.13,NW,308,0.0,0.0,57,-99.99,,,-99.99,VWS V14.01,2013-07-29 17:00:00,
2013-07-29 13:01:00,69.7,53.6,30.13,NW,308,0.0,0.0,57,-99.99,,,-99.99,VWS V14.01,2013-07-29 17:01:00,
2013-07-29 13:02:00,69.8,52.8,30.12,NW,308,0.0,0.0,55,-99.99,,,-99.99,VWS V14.01,2013-07-29 17:02:00,
2013-07-29 13:03:00,70.0,53.3,30.13,WNW,284,3.1,8.6,55,-99.99,,,-99.99,VWS V14.01,2013-07-29 17:03:00,
2013-07-29 13:04:00,70.1,52.8,30.12,WNW,284,0.0,4.3,54,-99.99,,,-99.99,VWS V14.01,2013-07-29 17:04:00,
2013-07-29 13:05:00,70.2,52.9,30.13,WNW,284,0.0,0.0,54,-99.99,,,-99.99,VWS V14.01,2013-07-29 17:05:00,
2013-07-29 13:06:00,70.2,52.9,30.12,WNW,284,0.0,0.0,54,-99.99,,,-99.99,VWS V14.01,2013-07-29 17:06:00,
2013-07-29 13:07:00,70.4,52.8,30.12,SW,236,0.0,6.2,54,-99.99,,,-99.99,VWS V14.01,2013-07-29 17:07:00,
2013-07-29 13:08:00,70.3,52.9,30.13,SSW,194,0.0,5.7,54,-99.99,,,-99.99,VWS V14.01,2013-07-29 17:08:00,
2013-07-29 13:09:00,70.5,53.4,30.13,North,359,6.4,10.0,55,-99.99,,,-99.99,VWS V14.01,2013-07-29 17:09:00,
2013-07-29 13:10:00,70.5,52.5,30.13,NNW,343,5.8,6.6,53,-99.99,,,-99.99,VWS V14.01,2013-07-29 17:10:00,
2013-07-29 13:11:00,70.5,52.5,30.13,NNW,339,5.3,6.6,53,-99.99,,,-99.99,VWS V14.01,2013-07-29 17:11:00,
2013-07-29 13:12:00,70.7,52.6,30.13,NW,309,0.0,5.3,53,-99.99,,,-99.99,VWS V14.01,2013-07-29 17:12:00,
2013-07-29 13:13:00,70.6,52.1,30.13,NNW,332,0.0,4.1,52,-99.99,,,-99.99,VWS V14.01,2013-07-29 17:13:00,
2013-07-29 13:14:00,70.6,52.0,30.13,NW,308,6.6,8.1,52,-99.99,,,-99.99,VWS V14.01,2013-07-29 17:14:00,
2013-07-29 13:15:00,70.7,52.7,30.13,NW,319,8.2,8.7,53,-99.99,,,-99.99,VWS V14.01,2013-07-29 17:15:00,
2013-07-29 13:16:00,70.7,52.8,30.13,WNW,283,6.0,8.7,53,-99.99,,,-99.99,VWS V14.01,2013-07-29 17:16:00,
2013-07-29 13:17:00,70.8,52.7,30.13,North,359,2.9,10.9,53,-99.99,,,-99.99,VWS V14.01,2013-07-29 17:17:00,
2013-07-29 13:18:00,70.8,52.8,30.13,WSW,240,0.0,8.1,53,-99.99,,,-99.99,VWS V14.01,2013-07-29 17:18:00,
2013-07-29 13:19:00,70.9,53.1,30.13,WSW,240,0.0,0.0,53,-99.99,,,-99.99,VWS V14.01,2013-07-29 17:19:00,
2013-07-29 13:20:00,71.1,53.6,30.13,NNW,333,6.2,8.3,54,-99.99,,,-99.99,VWS V14.01,2013-07-29 17:20:00,
2013-07-29 13:21:00,71.2,53.7,30.13,WNW,297,6.1,8.3,54,-99.99,,,-99.99,VWS V14.01,2013-07-29 17:21:00,
2013-07-29 13:22:00,71.4,53.5,30.13,NW,314,0.0,6.1,53,-99.99,,,-99.99,VWS V14.01,2013-07-29 17:22:00,
2013-07-29 13:23:00,71.3,52.9,30.13,NNW,328,4.6,5.1,52,-99.99,,,-99.99,VWS V14.01,2013-07-29 17:23:00,
2013-07-29 13:24:00,71.5,53.9,30.13,NW,305,0.0,8.4,54,-99.99,,,-99.99,VWS V14.01,2013-07-29 17:24:00,
2013-07-29 13:25:00,71.7,53.4,30.13,NW,311,5.3,5.6,52,-99.99,,,-99.99,VWS V14.01,2013-07-29 17:25:00,
2013-07-29 13:26:00,71.7,53.4,30.13,NW,304,5.6,5.6,52,-99.99,,,-99.99,VWS V14.01,2013-07-29 17:26:00,
2013-07-29 13:27:00,71.6,53.2,30.13,WNW,300,0.0,7.0,52,-99.99,,,-99.99,VWS V14.01,2013-07-29 17:27:00,
2013-07-29 13:28:00,71.7,53.2,30.13,West,266,0.0,5.7,52,-99.99,,,-99.99,VWS V14.01,2013-07-29 17:28:00,
2013-07-29 13:29:00,71.7,53.5,30.13,North,359,8.7,9.1,53,-99.99,,,-99.99,VWS V14.01,2013-07-29 17:29:00,
2013-07-29 13:30:00,71.5,52.4,30.13,NNE,21,3.5,13.6,51,-99.99,,,-99.99,VWS V14.01,2013-07-29 17:30:00,
2013-07-29 13:31:00,71.5,52.4,30.13,NNE,21,3.5,13.6,51,-99.99,,,-99.99,VWS V14.01,2013-07-29 17:31:00,
2013-07-29 13:32:00,71.5,52.5,30.13,NW,323,7.3,9.9,51,-99.99,,,-99.99,VWS V14.01,2013-07-29 17:32:00,
2013-07-29 13:33:00,71.4,52.6,30.13,West,273,0.0,7.3,52,-99.99,,,-99.99,VWS V14.01,2013-07-29 17:33:00,
2013-07-29 13:34:00,71.4,52.8,30.13,West,273,0.0,0.0,52,-99.99,,,-99.99,VWS V14.01,2013-07-29 17:34:00,
2013-07-29 13:35:00,71.4,53.0,30.13,NW,323,5.2,6.1,52,-99.99,,,-99.99,VWS V14.01,2013-07-29 17:35:00,
2013-07-29 13:36:00,71.3,52.9,30.13,NW,314,5.2,8.7,52,-99.99,,,-99.99,VWS V14.01,2013-07-29 17:36:00,
2013-07-29 13:37:00,71.4,53.2,30.13,West,260,6.3,7.3,53,-99.99,,,-99.99,VWS V14.01,2013-07-29 17:37:00,
2013-07-29 13:38:00,71.5,53.3,30.13,West,278,4.7,7.9,53,-99.99,,,-99.99,VWS V14.01,2013-07-29 17:38:00,
2013-07-29 13:39:00,71.4,53.2,30.13,West,264,6.4,11.0,53,-99.99,,,-99.99,VWS V14.01,2013-07-29 17:39:00,
2013-07-29 13:40:00,71.5,53.3,30.13,West,280,0.0,2.5,53,-99.99,,,-99.99,VWS V14.01,2013-07-29 17:40:00,
2013-07-29 13:41:00,71.5,53.3,30.13,West,280,2.5,6.8,53,-99.99,,,-99.99,VWS V14.01,2013-07-29 17:41:00,
2013-07-29 13:42:00,71.6,53.8,30.13,West,280,0.0,2.5,54,-99.99,,,-99.99,VWS V14.01,2013-07-29 17:42:00,
2013-07-29 13:43:00,71.6,53.4,30.13,NW,319,0.0,7.3,53,-99.99,,,-99.99,VWS V14.01,2013-07-29 17:43:00,
2013-07-29 13:44:00,71.7,53.7,30.13,West,267,0.0,4.7,53,-99.99,,,-99.99,VWS V14.01,2013-07-29 17:44:00,
2013-07-29 13:45:00,71.7,52.8,30.13,West,267,0.0,0.0,51,-99.99,,,-99.99,VWS V14.01,2013-07-29 17:45:00,
2013-07-29 13:46:00,71.8,53.1,30.13,West,267,0.0,0.0,52,-99.99,,,-99.99,VWS V14.01,2013-07-29 17:46:00,
2013-07-29 13:47:00,71.7,52.7,30.13,West,267,0.0,0.0,51,-99.99,,,-99.99,VWS V14.01,2013-07-29 17:47:00,
2013-07-29 13:48:00,71.6,53.0,30.13,West,267,0.0,0.0,52,-99.99,,,-99.99,VWS V14.01,2013-07-29 17:48:00,
2013-07-29 13:49:00,71.5,52.4,30.13,West,267,0.0,0.0,51,-99.99,,,-99.99,VWS V14.01,2013-07-29 17:49:00,
2013-07-29 13:50:00,71.4,52.7,30.13,WNW,285,0.0,4.3,52,-99.99,,,-99.99,VWS V14.01,2013-07-29 17:50:00,
2013-07-29 13:51:00,71.5,53.3,30.13,NW,315,0.0,3.4,53,-99.99,,,-99.99,VWS V14.01,2013-07-29 17:51:00,
2013-07-29 13:52:00,71.4,53.3,30.13,SW,233,8.7,8.7,53,-99.99,,,-99.99,VWS V14.01,2013-07-29 17:52:00,
2013-07-29 13:53:00,71.4,52.2,30.13,SW,217,0.0,8.7,51,-99.99,,,-99.99,VWS V14.01,2013-07-29 17:53:00,
2013-07-29 13:54:00,71.4,52.5,30.13,NW,323,5.1,7.7,51,-99.99,,,-99.99,VWS V14.01,2013-07-29 17:54:00,
2013-07-29 13:55:00,71.5,52.9,30.13,NW,304,6.3,9.9,52,-99.99,,,-99.99,VWS V14.01,2013-07-29 17:55:00,
2013-07-29 13:56:00,71.6,52.5,30.13,NW,322,5.1,5.4,51,-99.99,,,-99.99,VWS V14.01,2013-07-29 17:56:00,
2013-07-29 13:57:00,71.6,52.6,30.13,West,269,0.0,5.8,51,-99.99,,,-99.99,VWS V14.01,2013-07-29 17:57:00,
2013-07-29 13:58:00,71.6,52.8,30.13,WNW,302,6.8,7.1,52,-99.99,,,-99.99,VWS V14.01,2013-07-29 17:58:00,
2013-07-29 13:59:00,71.6,51.7,30.14,NW,305,5.9,8.4,49,-99.99,,,-99.99,VWS V14.01,2013-07-29 17:59:00,
2013-07-29 14:00:00,71.6,51.8,30.13,SW,231,4.4,6.2,50,-99.99,,,-99.99,VWS V14.01,2013-07-29 18:00:00,
2013-07-29 14:01:00,71.8,52.7,30.13,NW,321,5.0,8.1,51,-99.99,,,-99.99,VWS V14.01,2013-07-29 18:01:00,
2013-07-29 14:02:00,71.7,52.5,30.13,WNW,288,7.4,8.1,51,-99.99,,,-99.99,VWS V14.01,2013-07-29 18:02:00,
2013-07-29 14:03:00,71.8,53.1,30.13,West,262,5.5,10.9,52,-99.99,,,-99.99,VWS V14.01,2013-07-29 18:03:00,
2013-07-29 14:04:00,71.9,53.5,30.14,NNW,338,3.2,8.6,52,-99.99,,,-99.99,VWS V14.01,2013-07-29 18:04:00,
2013-07-29 14:05:00,72.1,53.6,30.14,NNW,338,4.4,9.3,52,-99.99,,,-99.99,VWS V14.01,2013-07-29 18:05:00,
2013-07-29 14:06:00,72.0,53.1,30.13,WNW,283,0.0,4.3,51,-99.99,,,-99.99,VWS V14.01,2013-07-29 18:06:00,
2013-07-29 14:07:00,72.0,53.1,30.13,NW,314,6.6,7.8,51,-99.99,,,-99.99,VWS V14.01,2013-07-29 18:07:00,
2013-07-29 14:08:00,72.1,54.0,30.13,West,260,3.4,7.0,53,-99.99,,,-99.99,VWS V14.01,2013-07-29 18:08:00,
2013-07-29 14:09:00,72.2,54.1,30.13,WNW,283,0.0,5.2,53,-99.99,,,-99.99,VWS V14.01,2013-07-29 18:09:00,
2013-07-29 14:10:00,72.1,53.5,30.13,WNW,283,0.0,5.7,52,-99.99,,,-99.99,VWS V14.01,2013-07-29 18:10:00,
2013-07-29 14:11:00,72.2,53.7,30.13,North,350,0.0,7.7,52,-99.99,,,-99.99,VWS V14.01,2013-07-29 18:11:00,
2013-07-29 14:12:00,72.2,53.8,30.13,North,350,0.0,7.7,52,-99.99,,,-99.99,VWS V14.01,2013-07-29 18:12:00,
2013-07-29 14:13:00,72.3,54.1,30.13,NW,308,0.0,10.5,53,-99.99,,,-99.99,VWS V14.01,2013-07-29 18:13:00,
2013-07-29 14:14:00,72.2,53.7,30.13,WSW,250,0.0,7.0,52,-99.99,,,-99.99,VWS V14.01,2013-07-29 18:14:00,
2013-07-29 14:15:00,72.3,54.0,30.13,West,274,0.0,5.0,52,-99.99,,,-99.99,VWS V14.01,2013-07-29 18:15:00,
2013-07-29 14:16:00,72.4,53.8,30.14,WNW,290,4.7,7.5,52,-99.99,,,-99.99,VWS V14.01,2013-07-29 18:16:00,
2013-07-29 14:17:00,72.4,53.8,30.14,WNW,290,0.0,7.5,52,-99.99,,,-99.99,VWS V14.01,2013-07-29 18:17:00,
2013-07-29 14:18:00,72.3,53.1,30.13,SW,218,1.1,1.1,51,-99.99,,,-99.99,VWS V14.01,2013-07-29 18:18:00,
2013-07-29 14:19:00,72.4,54.1,30.13,NNW,328,8.1,8.5,53,-99.99,,,-99.99,VWS V14.01,2013-07-29 18:19:00,
2013-07-29 14:20:00,72.2,53.3,30.14,NW,323,0.0,11.1,52,-99.99,,,-99.99,VWS V14.01,2013-07-29 18:20:00,
2013-07-29 14:21:00,72.3,53.2,30.14,NW,321,4.7,13.7,51,-99.99,,,-99.99,VWS V14.01,2013-07-29 18:21:00,
2013-07-29 14:22:00,72.3,53.2,30.14,NW,321,5.1,13.7,51,-99.99,,,-99.99,VWS V14.01,2013-07-29 18:22:00,
2013-07-29 14:23:00,72.2,53.0,30.14,NW,326,3.0,5.6,51,-99.99,,,-99.99,VWS V14.01,2013-07-29 18:23:00,
2013-07-29 14:24:00,72.3,53.6,30.14,West,259,0.0,6.7,52,-99.99,,,-99.99,VWS V14.01,2013-07-29 18:24:00,
2013-07-29 14:25:00,72.3,53.2,30.14,North,359,7.8,7.8,51,-99.99,,,-99.99,VWS V14.01,2013-07-29 18:25:00,
2013-07-29 14:26:00,72.4,53.4,30.14,WNW,295,0.0,0.0,51,-99.99,,,-99.99,VWS V14.01,2013-07-29 18:26:00,
2013-07-29 14:27:00,72.4,53.4,30.14,WNW,295,0.0,7.9,51,-99.99,,,-99.99,VWS V14.01,2013-07-29 18:27:00,
2013-07-29 14:28:00,72.4,53.7,30.14,NNW,329,3.3,7.0,52,-99.99,,,-99.99,VWS V14.01,2013-07-29 18:28:00,
2013-07-29 14:29:00,72.4,53.1,30.14,NNW,332,11.8,11.8,51,-99.99,,,-99.99,VWS V14.01,2013-07-29 18:29:00,
2013-07-29 14:30:00,72.5,52.9,30.14,NW,326,7.3,11.8,50,-99.99,,,-99.99,VWS V14.01,2013-07-29 18:30:00,
2013-07-29 14:31:00,72.4,52.7,30.14,WSW,243,0.0,5.7,50,-99.99,,,-99.99,VWS V14.01,2013-07-29 18:31:00,
2013-07-29 14:32:00,72.4,52.7,30.14,WSW,243,5.7,5.7,50,-99.99,,,-99.99,VWS V14.01,2013-07-29 18:32:00,
2013-07-29 14:33:00,72.4,52.8,30.14,WSW,243,0.0,5.7,50,-99.99,,,-99.99,VWS V14.01,2013-07-29 18:33:00,
2013-07-29 14:34:00,72.5,53.2,30.14,WSW,243,0.0,0.0,51,-99.99,,,-99.99,VWS V14.01,2013-07-29 18:34:00,
2013-07-29 14:35:00,72.4,52.9,30.14,WSW,243,0.0,0.0,50,-99.99,,,-99.99,VWS V14.01,2013-07-29 18:35:00,
2013-07-29 14:36:00,72.4,53.2,30.14,WNW,292,0.0,0.0,51,-99.99,,,-99.99,VWS V14.01,2013-07-29 18:36:00,
2013-07-29 14:37:00,72.4,53.2,30.14,WNW,292,0.0,4.9,51,-99.99,,,-99.99,VWS V14.01,2013-07-29 18:37:00,
2013-07-29 14:38:00,72.3,53.3,30.14,WNW,292,0.0,0.0,51,-99.99,,,-99.99,VWS V14.01,2013-07-29 18:38:00,
2013-07-29 14:39:00,72.3,53.4,30.14,WSW,242,5.0,6.0,51,-99.99,,,-99.99,VWS V14.01,2013-07-29 18:39:00,
2013-07-29 14:40:00,72.4,53.5,30.14,SW,233,2.9,5.0,51,-99.99,,,-99.99,VWS V14.01,2013-07-29 18:40:00,
2013-07-29 14:41:00,72.4,53.5,30.14,NNE,15,5.5,8.1,51,-99.99,,,-99.99,VWS V14.01,2013-07-29 18:41:00,
2013-07-29 14:42:00,72.3,53.5,30.14,WNW,288,0.0,4.8,52,-99.99,,,-99.99,VWS V14.01,2013-07-29 18:42:00,
2013-07-29 14:43:00,72.4,53.7,30.14,WNW,288,0.0,4.8,52,-99.99,,,-99.99,VWS V14.01,2013-07-29 18:43:00,
2013-07-29 14:44:00,72.4,54.1,30.14,NNW,342,0.0,6.2,53,-99.99,,,-99.99,VWS V14.01,2013-07-29 18:44:00,
2013-07-29 14:45:00,72.4,54.4,30.14,NW,325,4.8,6.2,53,-99.99,,,-99.99,VWS V14.01,2013-07-29 18:45:00,
2013-07-29 14:46:00,72.4,53.4,30.15,NW,321,0.0,8.1,51,-99.99,,,-99.99,VWS V14.01,2013-07-29 18:46:00,
2013-07-29 14:47:00,72.3,53.8,30.14,NNW,335,4.3,4.3,52,-99.99,,,-99.99,VWS V14.01,2013-07-29 18:47:00,
2013-07-29 14:48:00,72.3,54.1,30.15,WNW,283,5.8,9.4,53,-99.99,,,-99.99,VWS V14.01,2013-07-29 18:48:00,
2013-07-29 14:49:00,72.3,53.8,30.15,WSW,250,5.7,5.8,52,-99.99,,,-99.99,VWS V14.01,2013-07-29 18:49:00,
2013-07-29 14:50:00,72.2,53.8,30.15,NNW,328,6.1,7.8,52,-99.99,,,-99.99,VWS V14.01,2013-07-29 18:50:00,
2013-07-29 14:51:00,72.2,53.7,30.15,NW,304,7.8,11.6,52,-99.99,,,-99.99,VWS V14.01,2013-07-29 18:51:00,
2013-07-29 14:52:00,72.1,53.3,30.15,NNW,339,0.0,4.4,52,-99.99,,,-99.99,VWS V14.01,2013-07-29 18:52:00,
2013-07-29 14:53:00,72.1,53.5,30.15,WNW,300,0.0,4.4,52,-99.99,,,-99.99,VWS V14.01,2013-07-29 18:53:00,
2013-07-29 14:54:00,72.0,53.8,30.15,West,264,0.0,6.0,53,-99.99,,,-99.99,VWS V14.01,2013-07-29 18:54:00,
2013-07-29 14:55:00,72.1,54.0,30.15,WNW,288,0.0,5.4,53,-99.99,,,-99.99,VWS V14.01,2013-07-29 18:55:00,
2013-07-29 14:56:00,72.1,53.9,30.15,WNW,288,0.0,0.0,53,-99.99,,,-99.99,VWS V14.01,2013-07-29 18:56:00,
2013-07-29 14:57:00,72.0,54.0,30.15,WNW,288,0.0,0.0,53,-99.99,,,-99.99,VWS V14.01,2013-07-29 18:57:00,
2013-07-29 14:58:00,72.0,54.1,30.15,West,281,0.0,3.2,53,-99.99,,,-99.99,VWS V14.01,2013-07-29 18:58:00,
2013-07-29 14:59:00,72.0,54.2,30.15,West,281,0.0,0.0,53,-99.99,,,-99.99,VWS V14.01,2013-07-29 18:59:00,
2013-07-29 15:00:00,72.1,54.2,30.15,West,281,0.0,0.0,53,-99.99,,,-99.99,VWS V14.01,2013-07-29 19:00:00,
2013-07-29 15:01:00,72.1,54.5,30.15,West,281,0.0,0.0,54,-99.99,,,-99.99,VWS V14.01,2013-07-29 19:01:00,
2013-07-29 15:02:00,72.2,54.5,30.15,SW,217,0.0,8.5,54,-99.99,,,-99.99,VWS V14.01,2013-07-29 19:02:00,
2013-07-29 15:03:00,72.2,54.5,30.15,SW,217,0.0,8.5,54,-99.99,,,-99.99,VWS V14.01,2013-07-29 19:03:00,
2013-07-29 15:04:00,72.2,53.7,30.15,WNW,288,3.3,5.3,52,-99.99,,,-99.99,VWS V14.01,2013-07-29 19:04:00,
2013-07-29 15:05:00,72.2,53.6,30.15,NNW,333,0.0,3.5,52,-99.99,,,-99.99,VWS V14.01,2013-07-29 19:05:00,
2013-07-29 15:06:00,72.2,54.0,30.15,NNW,340,3.5,8.8,53,-99.99,,,-99.99,VWS V14.01,2013-07-29 19:06:00,
2013-07-29 15:07:00,72.2,54.1,30.15,NNW,338,6.5,8.7,53,-99.99,,,-99.99,VWS V14.01,2013-07-29 19:07:00,
2013-07-29 15:08:00,72.3,54.4,30.15,NW,315,0.0,8.7,53,-99.99,,,-99.99,VWS V14.01,2013-07-29 19:08:00,
2013-07-29 15:09:00,72.3,54.2,30.15,NW,315,4.5,4.5,53,-99.99,,,-99.99,VWS V14.01,2013-07-29 19:09:00,
2013-07-29 15:10:00,72.3,54.4,30.15,NW,315,0.0,4.5,53,-99.99,,,-99.99,VWS V14.01,2013-07-29 19:10:00,
2013-07-29 15:11:00,72.2,54.0,30.15,NW,315,0.0,0.0,53,-99.99,,,-99.99,VWS V14.01,2013-07-29 19:11:00,
2013-07-29 15:12:00,72.3,53.8,30.15,NW,315,0.0,0.0,52,-99.99,,,-99.99,VWS V14.01,2013-07-29 19:12:00,
2013-07-29 15:13:00,72.3,53.8,30.15,NW,315,0.0,0.0,52,-99.99,,,-99.99,VWS V14.01,2013-07-29 19:13:00,
2013-07-29 15:14:00,72.2,53.7,30.15,West,269,0.0,3.2,52,-99.99,,,-99.99,VWS V14.01,2013-07-29 19:14:00,
2013-07-29 15:15:00,72.3,54.0,30.15,WSW,238,0.0,5.0,52,-99.99,,,-99.99,VWS V14.01,2013-07-29 19:15:00,
2013-07-29 15:16:00,72.2,54.1,30.15,WNW,288,5.4,8.2,53,-99.99,,,-99.99,VWS V14.01,2013-07-29 19:16:00,
2013-07-29 15:17:00,72.4,54.4,30.15,NW,323,1.4,3.3,53,-99.99,,,-99.99,VWS V14.01,2013-07-29 19:17:00,
2013-07-29 15:18:00,72.3,54.3,30.15,NW,323,3.3,6.1,53,-99.99,,,-99.99,VWS V14.01,2013-07-29 19:18:00,
2013-07-29 15:19:00,72.4,54.6,30.15,WNW,295,3.4,7.1,54,-99.99,,,-99.99,VWS V14.01,2013-07-29 19:19:00,
2013-07-29 15:20:00,72.5,54.8,30.15,WNW,287,0.0,3.4,54,-99.99,,,-99.99,VWS V14.01,2013-07-29 19:20:00,
2013-07-29 15:21:00,72.5,54.6,30.15,NNW,336,0.0,5.3,53,-99.99,,,-99.99,VWS V14.01,2013-07-29 19:21:00,
2013-07-29 15:22:00,72.7,55.0,30.15,NW,325,6.3,9.3,54,-99.99,,,-99.99,VWS V14.01,2013-07-29 19:22:00,
2013-07-29 15:23:00,72.7,55.0,30.15,NW,318,6.1,7.0,54,-99.99,,,-99.99,VWS V14.01,2013-07-29 19:23:00,
2013-07-29 15:24:00,72.7,54.3,30.15,NW,308,6.4,9.3,52,-99.99,,,-99.99,VWS V14.01,2013-07-29 19:24:00,
2013-07-29 15:25:00,72.8,54.1,30.15,NNW,328,0.0,6.4,52,-99.99,,,-99.99,VWS V14.01,2013-07-29 19:25:00,
2013-07-29 15:26:00,72.8,54.0,30.15,NW,315,7.0,7.7,52,-99.99,,,-99.99,VWS V14.01,2013-07-29 19:26:00,
2013-07-29 15:27:00,72.7,53.7,30.15,North,359,7.1,7.1,51,-99.99,,,-99.99,VWS V14.01,2013-07-29 19:27:00,
2013-07-29 15:28:00,72.7,53.7,30.15,NW,308,0.0,3.4,51,-99.99,,,-99.99,VWS V14.01,2013-07-29 19:28:00,
2013-07-29 15:29:00,72.7,53.8,30.15,NNE,30,0.0,7.1,51,-99.99,,,-99.99,VWS V14.01,2013-07-29 19:29:00,
2013-07-29 15:30:00,72.7,53.8,30.15,NNE,30,0.0,0.0,52,-99.99,,,-99.99,VWS V14.01,2013-07-29 19:30:00,
2013-07-29 15:31:00,72.5,53.3,30.15,NNE,30,0.0,0.0,51,-99.99,,,-99.99,VWS V14.01,2013-07-29 19:31:00,
2013-07-29 15:32:00,72.4,53.9,30.15,NNE,30,0.0,0.0,52,-99.99,,,-99.99,VWS V14.01,2013-07-29 19:32:00,
2013-07-29 15:33:00,72.5,54.0,30.15,NNE,30,0.0,0.0,52,-99.99,,,-99.99,VWS V14.01,2013-07-29 19:33:00,
2013-07-29 15:34:00,72.5,54.1,30.15,NNE,30,0.0,0.0,52,-99.99,,,-99.99,VWS V14.01,2013-07-29 19:34:00,
2013-07-29 15:35:00,72.4,53.8,30.15,West,276,3.4,5.6,52,-99.99,,,-99.99,VWS V14.01,2013-07-29 19:35:00,
2013-07-29 15:36:00,72.4,53.9,30.15,WNW,300,7.6,11.6,52,-99.99,,,-99.99,VWS V14.01,2013-07-29 19:36:00,
2013-07-29 15:37:00,72.4,54.5,30.15,NW,323,7.9,8.0,53,-99.99,,,-99.99,VWS V14.01,2013-07-29 19:37:00,
2013-07-29 15:38:00,72.4,54.6,30.15,West,278,5.2,10.5,54,-99.99,,,-99.99,VWS V14.01,2013-07-29 19:38:00,
2013-07-29 15:39:00,72.5,54.5,30.15,WNW,294,5.0,9.5,53,-99.99,,,-99.99,VWS V14.01,2013-07-29 19:39:00,
2013-07-29 15:40:00,72.5,54.4,30.15,North,6,0.0,5.7,53,-99.99,,,-99.99,VWS V14.01,2013-07-29 19:40:00,
2013-07-29 15:41:00,72.6,54.6,30.15,North,6,0.0,3.4,53,-99.99,,,-99.99,VWS V14.01,2013-07-29 19:41:00,
2013-07-29 15:42:00,72.6,54.8,30.15,North,6,0.0,0.0,54,-99.99,,,-99.99,VWS V14.01,2013-07-29 19:42:00,
2013-07-29 15:43:00,72.8,54.7,30.15,WSW,246,4.8,8.0,53,-99.99,,,-99.99,VWS V14.01,2013-07-29 19:43:00,
2013-07-29 15:44:00,72.7,54.4,30.15,North,359,0.0,8.0,53,-99.99,,,-99.99,VWS V14.01,2013-07-29 19:44:00,
2013-07-29 15:45:00,72.8,53.9,30.15,NW,308,5.2,8.9,52,-99.99,,,-99.99,VWS V14.01,2013-07-29 19:45:00,
2013-07-29 15:46:00,72.9,54.0,30.15,NNW,340,7.1,7.5,52,-99.99,,,-99.99,VWS V14.01,2013-07-29 19:46:00,
2013-07-29 15:47:00,72.8,54.0,30.15,WNW,287,0.0,7.1,52,-99.99,,,-99.99,VWS V14.01,2013-07-29 19:47:00,
2013-07-29 15:48:00,72.8,54.0,30.15,WNW,283,0.0,0.0,52,-99.99,,,-99.99,VWS V14.01,2013-07-29 19:48:00,
2013-07-29 15:49:00,72.8,54.0,30.15,WNW,283,0.0,0.0,52,-99.99,,,-99.99,VWS V14.01,2013-07-29 19:49:00,
2013-07-29 15:50:00,72.8,54.4,30.15,SW,231,0.0,3.3,52,-99.99,,,-99.99,VWS V14.01,2013-07-29 19:50:00,
2013-07-29 15:51:00,72.8,54.0,30.15,SW,231,0.0,0.0,52,-99.99,,,-99.99,VWS V14.01,2013-07-29 19:51:00,
2013-07-29 15:52:00,72.8,53.6,30.15,SW,231,0.0,0.0,51,-99.99,,,-99.99,VWS V14.01,2013-07-29 19:52:00,
2013-07-29 15:53:00,72.7,54.4,30.15,SW,231,0.0,0.0,53,-99.99,,,-99.99,VWS V14.01,2013-07-29 19:53:00,
2013-07-29 15:54:00,72.7,54.5,30.15,SW,231,0.0,0.0,53,-99.99,,,-99.99,VWS V14.01,2013-07-29 19:54:00,
2013-07-29 15:55:00,72.8,54.8,30.15,SW,221,0.0,2.9,53,-99.99,,,-99.99,VWS V14.01,2013-07-29 19:55:00,
2013-07-29 15:56:00,72.7,53.8,30.15,NW,316,4.4,10.6,52,-99.99,,,-99.99,VWS V14.01,2013-07-29 19:56:00,
2013-07-29 15:57:00,72.7,54.0,30.15,SSW,201,0.0,4.4,52,-99.99,,,-99.99,VWS V14.01,2013-07-29 19:57:00,
2013-07-29 15:58:00,72.8,53.8,30.15,NNW,345,8.5,9.8,51,-99.99,,,-99.99,VWS V14.01,2013-07-29 19:58:00,
2013-07-29 15:59:00,72.8,54.1,30.15,NW,312,5.9,9.8,52,-99.99,,,-99.99,VWS V14.01,2013-07-29 19:59:00,
2013-07-29 16:00:00,72.9,53.9,30.15,West,262,0.0,8.0,51,-99.99,,,-99.99,VWS V14.01,2013-07-29 20:00:00,
2013-07-29 16:01:00,72.9,54.3,30.15,West,262,0.0,0.0,52,-99.99,,,-99.99,VWS V14.01,2013-07-29 20:01:00,
2013-07-29 16:02:00,73.0,54.5,30.15,West,262,0.0,0.0,52,-99.99,,,-99.99,VWS V14.01,2013-07-29 20:02:00,
2013-07-29 16:03:00,73.2,54.9,30.15,NNE,18,3.3,6.1,53,-99.99,,,-99.99,VWS V14.01,2013-07-29 20:03:00,
2013-07-29 16:04:00,73.2,54.4,30.15,NNE,18,0.0,6.1,52,-99.99,,,-99.99,VWS V14.01,2013-07-29 20:04:00,
2013-07-29 16:05:00,73.3,53.5,30.15,North,359,0.0,6.9,50,-99.99,,,-99.99,VWS V14.01,2013-07-29 20:05:00,
2013-07-29 16:06:00,73.3,53.2,30.14,WSW,252,5.0,5.7,49,-99.99,,,-99.99,VWS V14.01,2013-07-29 20:06:00,
2013-07-29 16:07:00,73.4,53.0,30.15,West,264,5.7,10.8,49,-99.99,,,-99.99,VWS V14.01,2013-07-29 20:07:00,
2013-07-29 16:08:00,73.5,53.1,30.15,South,180,7.3,11.6,49,-99.99,,,-99.99,VWS V14.01,2013-07-29 20:08:00,
2013-07-29 16:09:00,73.5,53.2,30.15,SSW,200,3.5,11.6,49,-99.99,,,-99.99,VWS V14.01,2013-07-29 20:09:00,
2013-07-29 16:10:00,73.6,53.1,30.15,NW,323,2.4,8.9,49,-99.99,,,-99.99,VWS V14.01,2013-07-29 20:10:00,
2013-07-29 16:11:00,73.6,53.0,30.15,NW,325,6.0,13.2,48,-99.99,,,-99.99,VWS V14.01,2013-07-29 20:11:00,
2013-07-29 16:12:00,73.7,53.8,30.15,West,278,5.0,13.7,50,-99.99,,,-99.99,VWS V14.01,2013-07-29 20:12:00,
2013-07-29 16:13:00,73.7,53.0,30.15,WNW,295,8.9,10.4,48,-99.99,,,-99.99,VWS V14.01,2013-07-29 20:13:00,
2013-07-29 16:14:00,73.7,53.0,30.15,NW,326,6.7,10.4,48,-99.99,,,-99.99,VWS V14.01,2013-07-29 20:14:00,
2013-07-29 16:15:00,73.6,53.3,30.15,NW,312,3.5,7.3,49,-99.99,,,-99.99,VWS V14.01,2013-07-29 20:15:00,
2013-07-29 16:16:00,73.6,53.5,30.15,NNW,336,0.0,10.6,49,-99.99,,,-99.99,VWS V14.01,2013-07-29 20:16:00,
2013-07-29 16:17:00,73.6,53.6,30.15,NW,312,5.4,7.8,50,-99.99,,,-99.99,VWS V14.01,2013-07-29 20:17:00,
2013-07-29 16:18:00,73.4,53.0,30.15,North,4,3.1,11.3,49,-99.99,,,-99.99,VWS V14.01,2013-07-29 20:18:00,
2013-07-29 16:19:00,73.4,52.9,30.15,NNW,335,3.4,11.3,49,-99.99,,,-99.99,VWS V14.01,2013-07-29 20:19:00,
2013-07-29 16:20:00,73.3,52.9,30.15,NNW,339,6.4,12.9,49,-99.99,,,-99.99,VWS V14.01,2013-07-29 20:20:00,
2013-07-29 16:21:00,73.1,52.9,30.15,NW,307,6.9,13.0,49,-99.99,,,-99.99,VWS V14.01,2013-07-29 20:21:00,
2013-07-29 16:22:00,72.9,52.9,30.15,NW,318,4.4,9.4,50,-99.99,,,-99.99,VWS V14.01,2013-07-29 20:22:00,
2013-07-29 16:23:00,72.7,53.1,30.15,SSW,194,0.0,9.6,50,-99.99,,,-99.99,VWS V14.01,2013-07-29 20:23:00,
2013-07-29 16:24:00,72.7,53.2,30.15,SSW,194,0.0,9.6,50,-99.99,,,-99.99,VWS V14.01,2013-07-29 20:24:00,
2013-07-29 16:25:00,72.6,53.2,30.15,SW,232,0.0,6.1,50,-99.99,,,-99.99,VWS V14.01,2013-07-29 20:25:00,
2013-07-29 16:26:00,72.7,53.4,30.15,WSW,242,3.5,7.0,51,-99.99,,,-99.99,VWS V14.01,2013-07-29 20:26:00,
2013-07-29 16:27:00,72.6,53.3,30.15,NNW,329,4.6,8.1,51,-99.99,,,-99.99,VWS V14.01,2013-07-29 20:27:00,
2013-07-29 16:28:00,72.5,53.7,30.15,NW,314,4.1,6.2,52,-99.99,,,-99.99,VWS V14.01,2013-07-29 20:28:00,
2013-07-29 16:29:00,72.5,53.7,30.15,NW,314,4.1,6.2,52,-99.99,,,-99.99,VWS V14.01,2013-07-29 20:29:00,
2013-07-29 16:30:00,72.5,54.0,30.15,NW,319,5.3,7.6,52,-99.99,,,-99.99,VWS V14.01,2013-07-29 20:30:00,
2013-07-29 16:31:00,72.5,54.3,30.15,West,266,0.0,5.4,53,-99.99,,,-99.99,VWS V14.01,2013-07-29 20:31:00,
2013-07-29 16:32:00,72.6,54.5,30.15,SW,222,2.5,7.3,53,-99.99,,,-99.99,VWS V14.01,2013-07-29 20:32:00,
2013-07-29 16:33:00,72.5,54.4,30.15,SW,222,3.3,5.8,53,-99.99,,,-99.99,VWS V14.01,2013-07-29 20:33:00,
2013-07-29 16:34:00,72.5,54.4,30.15,SW,222,3.3,5.8,53,-99.99,,,-99.99,VWS V14.01,2013-07-29 20:34:00,
2013-07-29 16:35:00,72.5,54.5,30.15,WSW,250,5.5,7.3,53,-99.99,,,-99.99,VWS V14.01,2013-07-29 20:35:00,
2013-07-29 16:36:00,72.6,54.6,30.15,NW,314,3.3,6.2,53,-99.99,,,-99.99,VWS V14.01,2013-07-29 20:36:00,
2013-07-29 16:37:00,72.5,54.2,30.15,WSW,255,1.1,8.3,53,-99.99,,,-99.99,VWS V14.01,2013-07-29 20:37:00,
2013-07-29 16:38:00,72.5,54.1,30.15,SW,233,0.0,0.0,52,-99.99,,,-99.99,VWS V14.01,2013-07-29 20:38:00,
2013-07-29 16:39:00,72.5,54.1,30.15,SW,233,0.0,5.2,52,-99.99,,,-99.99,VWS V14.01,2013-07-29 20:39:00,
2013-07-29 16:40:00,72.5,54.0,30.15,SW,233,0.0,0.0,52,-99.99,,,-99.99,VWS V14.01,2013-07-29 20:40:00,
2013-07-29 16:41:00,72.5,54.1,30.15,NW,304,0.0,5.3,52,-99.99,,,-99.99,VWS V14.01,2013-07-29 20:41:00,
2013-07-29 16:42:00,72.4,54.3,30.15,SW,222,0.0,7.1,53,-99.99,,,-99.99,VWS V14.01,2013-07-29 20:42:00,
2013-07-29 16:43:00,72.3,54.2,30.15,WNW,301,5.2,6.3,53,-99.99,,,-99.99,VWS V14.01,2013-07-29 20:43:00,
2013-07-29 16:44:00,72.3,54.2,30.15,NNW,342,4.8,6.8,53,-99.99,,,-99.99,VWS V14.01,2013-07-29 20:44:00,
2013-07-29 16:45:00,72.4,54.5,30.15,WNW,302,3.4,7.9,53,-99.99,,,-99.99,VWS V14.01,2013-07-29 20:45:00,
2013-07-29 16:46:00,72.4,54.2,30.15,West,270,5.0,9.6,53,-99.99,,,-99.99,VWS V14.01,2013-07-29 20:46:00,
2013-07-29 16:47:00,72.2,53.9,30.15,West,273,8.2,11.3,52,-99.99,,,-99.99,VWS V14.01,2013-07-29 20:47:00,
2013-07-29 16:48:00,72.1,54.2,30.15,NNW,338,7.1,8.1,53,-99.99,,,-99.99,VWS V14.01,2013-07-29 20:48:00,
2013-07-29 16:49:00,72.0,54.1,30.15,NW,318,6.5,11.3,53,-99.99,,,-99.99,VWS V14.01,2013-07-29 20:49:00,
2013-07-29 16:50:00,72.1,54.5,30.15,WNW,302,4.8,8.1,54,-99.99,,,-99.99,VWS V14.01,2013-07-29 20:50:00,
2013-07-29 16:51:00,72.1,54.4,30.15,WNW,287,5.0,7.0,54,-99.99,,,-99.99,VWS V14.01,2013-07-29 20:51:00,
2013-07-29 16:52:00,72.0,54.3,30.15,WNW,290,5.2,6.5,54,-99.99,,,-99.99,VWS V14.01,2013-07-29 20:52:00,
2013-07-29 16:53:00,71.9,54.1,30.15,WNW,290,0.0,5.2,54,-99.99,,,-99.99,VWS V14.01,2013-07-29 20:53:00,
2013-07-29 16:54:00,71.9,54.2,30.15,NW,308,0.0,5.3,54,-99.99,,,-99.99,VWS V14.01,2013-07-29 20:54:00,
2013-07-29 16:55:00,71.9,54.2,30.15,WNW,302,0.0,7.1,54,-99.99,,,-99.99,VWS V14.01,2013-07-29 20:55:00,
2013-07-29 16:56:00,71.9,54.4,30.15,NW,314,4.5,6.2,54,-99.99,,,-99.99,VWS V14.01,2013-07-29 20:56:00,
2013-07-29 16:57:00,71.8,54.5,30.15,WNW,284,4.7,4.7,54,-99.99,,,-99.99,VWS V14.01,2013-07-29 20:57:00,
2013-07-29 16:58:00,71.8,54.0,30.16,NNW,328,5.7,8.6,53,-99.99,,,-99.99,VWS V14.01,2013-07-29 20:58:00,
2013-07-29 16:59:00,71.8,54.0,30.15,NNW,340,7.1,7.9,54,-99.99,,,-99.99,VWS V14.01,2013-07-29 20:59:00,
2013-07-29 17:00:00,71.8,54.0,30.15,NNE,24,0.0,7.9,54,-99.99,,,-99.99,VWS V14.01,2013-07-29 21:00:00,
2013-07-29 17:01:00,71.7,54.1,30.15,NNE,24,0.0,0.0,54,-99.99,,,-99.99,VWS V14.01,2013-07-29 21:01:00,
2013-07-29 17:02:00,71.8,54.4,30.15,NNE,24,0.0,0.0,54,-99.99,,,-99.99,VWS V14.01,2013-07-29 21:02:00,
2013-07-29 17:03:00,71.9,54.8,30.15,NNE,28,9.9,9.9,55,-99.99,,,-99.99,VWS V14.01,2013-07-29 21:03:00,
2013-07-29 17:04:00,72.0,54.9,30.15,West,262,3.4,9.0,55,-99.99,,,-99.99,VWS V14.01,2013-07-29 21:04:00,
2013-07-29 17:05:00,72.0,54.9,30.16,West,262,0.0,9.0,55,-99.99,,,-99.99,VWS V14.01,2013-07-29 21:05:00,
2013-07-29 17:06:00,72.1,55.2,30.15,NNW,339,9.8,9.8,55,-99.99,,,-99.99,VWS V14.01,2013-07-29 21:06:00,
2013-07-29 17:07:00,72.2,54.8,30.15,NNW,336,0.0,11.7,54,-99.99,,,-99.99,VWS V14.01,2013-07-29 21:07:00,
2013-07-29 17:08:00,72.2,54.8,30.15,North,352,3.2,5.7,54,-99.99,,,-99.99,VWS V14.01,2013-07-29 21:08:00,
2013-07-29 17:09:00,72.3,54.7,30.15,West,281,4.3,5.5,54,-99.99,,,-99.99,VWS V14.01,2013-07-29 21:09:00,
2013-07-29 17:10:00,72.5,54.9,30.15,NW,321,5.0,6.8,54,-99.99,,,-99.99,VWS V14.01,2013-07-29 21:10:00,
2013-07-29 17:11:00,72.4,55.2,30.15,West,269,0.0,7.0,55,-99.99,,,-99.99,VWS V14.01,2013-07-29 21:11:00,
2013-07-29 17:12:00,72.4,54.5,30.15,NW,319,0.0,7.7,53,-99.99,,,-99.99,VWS V14.01,2013-07-29 21:12:00,
2013-07-29 17:13:00,72.5,54.7,30.15,WNW,283,0.0,5.9,54,-99.99,,,-99.99,VWS V14.01,2013-07-29 21:13:00,
2013-07-29 17:14:00,72.4,54.5,30.15,NNW,338,0.0,7.0,53,-99.99,,,-99.99,VWS V14.01,2013-07-29 21:14:00,
2013-07-29 17:15:00,72.4,54.6,30.15,WNW,283,4.5,7.0,54,-99.99,,,-99.99,VWS V14.01,2013-07-29 21:15:00,
2013-07-29 17:16:00,72.5,54.8,30.15,NW,308,5.0,5.1,54,-99.99,,,-99.99,VWS V14.01,2013-07-29 21:16:00,
2013-07-29 17:17:00,72.4,54.7,30.15,West,281,0.0,5.0,54,-99.99,,,-99.99,VWS V14.01,2013-07-29 21:17:00,
2013-07-29 17:18:00,72.4,54.7,30.15,NNW,340,6.8,13.1,54,-99.99,,,-99.99,VWS V14.01,2013-07-29 21:18:00,
2013-07-29 17:19:00,72.4,54.2,30.15,NW,312,5.8,7.4,53,-99.99,,,-99.99,VWS V14.01,2013-07-29 21:19:00,
2013-07-29 17:20:00,72.4,54.2,30.16,WNW,290,3.0,7.4,53,-99.99,,,-99.99,VWS V14.01,2013-07-29 21:20:00,
2013-07-29 17:21:00,72.3,54.0,30.16,NNW,328,6.8,6.8,53,-99.99,,,-99.99,VWS V14.01,2013-07-29 21:21:00,
2013-07-29 17:22:00,72.2,54.2,30.15,WNW,290,4.7,12.0,53,-99.99,,,-99.99,VWS V14.01,2013-07-29 21:22:00,
2013-07-29 17:23:00,72.2,54.2,30.16,West,276,0.0,4.7,53,-99.99,,,-99.99,VWS V14.01,2013-07-29 21:23:00,
2013-07-29 17:24:00,72.1,53.9,30.16,SW,232,0.0,5.5,53,-99.99,,,-99.99,VWS V14.01,2013-07-29 21:24:00,
2013-07-29 17:25:00,72.1,53.9,30.16,SW,232,0.0,5.5,53,-99.99,,,-99.99,VWS V14.01,2013-07-29 21:25:00,
2013-07-29 17:26:00,72.1,54.1,30.16,SW,232,0.0,0.0,53,-99.99,,,-99.99,VWS V14.01,2013-07-29 21:26:00,
2013-07-29 17:27:00,71.9,54.1,30.16,SW,232,0.0,0.0,53,-99.99,,,-99.99,VWS V14.01,2013-07-29 21:27:00,
2013-07-29 17:28:00,71.9,54.1,30.16,SW,232,0.0,0.0,53,-99.99,,,-99.99,VWS V14.01,2013-07-29 21:28:00,
2013-07-29 17:32:00,71.9,54.1,30.16,WNW,302,0.0,0.0,54,-99.99,,,-99.99,VWS V14.01,2013-07-29 21:32:00,
2013-07-29 17:33:00,71.9,54.3,30.16,WNW,302,0.0,0.0,54,-99.99,,,-99.99,VWS V14.01,2013-07-29 21:33:00,
2013-07-29 17:34:00,71.9,54.4,30.16,WNW,302,0.0,0.0,54,-99.99,,,-99.99,VWS V14.01,2013-07-29 21:34:00,
2013-07-29 17:35:00,71.9,54.7,30.16,WNW,302,0.0,0.0,55,-99.99,,,-99.99,VWS V14.01,2013-07-29 21:35:00,
2013-07-29 17:36:00,71.9,54.5,30.16,West,260,3.4,3.4,54,-99.99,,,-99.99,VWS V14.01,2013-07-29 21:36:00,
2013-07-29 17:37:00,71.9,54.5,30.16,WNW,287,0.0,0.0,54,-99.99,,,-99.99,VWS V14.01,2013-07-29 21:37:00,
2013-07-29 17:38:00,71.9,54.4,30.16,WNW,287,0.0,4.3,54,-99.99,,,-99.99,VWS V14.01,2013-07-29 21:38:00,
2013-07-29 17:39:00,71.8,54.3,30.16,WNW,287,0.0,0.0,54,-99.99,,,-99.99,VWS V14.01,2013-07-29 21:39:00,
2013-07-29 17:40:00,71.8,54.3,30.16,WNW,287,0.0,0.0,54,-99.99,,,-99.99,VWS V14.01,2013-07-29 21:40:00,
2013-07-29 17:41:00,71.8,54.4,30.16,WNW,287,0.0,0.0,54,-99.99,,,-99.99,VWS V14.01,2013-07-29 21:41:00,
2013-07-29 17:42:00,71.9,54.5,30.16,WNW,297,0.0,6.0,54,-99.99,,,-99.99,VWS V14.01,2013-07-29 21:42:00,
2013-07-29 17:43:00,71.9,54.4,30.16,WNW,297,0.0,6.0,54,-99.99,,,-99.99,VWS V14.01,2013-07-29 21:43:00,
2013-07-29 17:44:00,71.8,54.4,30.16,WNW,295,5.2,7.6,54,-99.99,,,-99.99,VWS V14.01,2013-07-29 21:44:00,
2013-07-29 17:45:00,71.8,54.5,30.16,WSW,243,0.0,5.2,54,-99.99,,,-99.99,VWS V14.01,2013-07-29 21:45:00,
2013-07-29 17:46:00,71.8,54.6,30.16,NNW,329,5.0,8.0,55,-99.99,,,-99.99,VWS V14.01,2013-07-29 21:46:00,
2013-07-29 17:47:00,71.8,54.1,30.16,WNW,285,0.0,4.7,54,-99.99,,,-99.99,VWS V14.01,2013-07-29 21:47:00,
2013-07-29 17:48:00,71.8,54.2,30.16,NW,305,2.4,4.7,54,-99.99,,,-99.99,VWS V14.01,2013-07-29 21:48:00,
2013-07-29 17:49:00,71.7,54.2,30.16,NW,307,5.0,5.0,54,-99.99,,,-99.99,VWS V14.01,2013-07-29 21:49:00,
2013-07-29 17:50:00,71.7,54.0,30.16,NW,311,0.0,6.3,54,-99.99,,,-99.99,VWS V14.01,2013-07-29 21:50:00,
2013-07-29 17:51:00,71.7,54.1,30.16,West,274,4.4,4.4,54,-99.99,,,-99.99,VWS V14.01,2013-07-29 21:51:00,
2013-07-29 17:52:00,71.8,54.6,30.16,NW,309,0.0,0.0,55,-99.99,,,-99.99,VWS V14.01,2013-07-29 21:52:00,
2013-07-29 17:53:00,71.9,54.7,30.16,NW,307,0.0,6.2,55,-99.99,,,-99.99,VWS V14.01,2013-07-29 21:53:00,
2013-07-29 17:54:00,71.9,54.7,30.16,West,281,4.4,7.0,55,-99.99,,,-99.99,VWS V14.01,2013-07-29 21:54:00,
2013-07-29 17:55:00,71.9,54.5,30.16,West,281,0.0,4.4,54,-99.99,,,-99.99,VWS V14.01,2013-07-29 21:55:00,
2013-07-29 17:56:00,71.9,54.6,30.16,NW,307,3.4,5.6,54,-99.99,,,-99.99,VWS V14.01,2013-07-29 21:56:00,
2013-07-29 17:57:00,72.1,54.4,30.16,WNW,283,0.0,5.7,54,-99.99,,,-99.99,VWS V14.01,2013-07-29 21:57:00,
2013-07-29 17:58:00,72.1,54.4,30.16,West,278,0.0,5.7,54,-99.99,,,-99.99,VWS V14.01,2013-07-29 21:58:00,
2013-07-29 17:59:00,72.1,54.2,30.16,WNW,295,4.5,7.2,53,-99.99,,,-99.99,VWS V14.01,2013-07-29 21:59:00,
2013-07-29 18:00:00,72.1,54.2,30.16,WNW,295,0.0,4.5,53,-99.99,,,-99.99,VWS V14.01,2013-07-29 22:00:00,
2013-07-29 18:01:00,72.2,54.3,30.16,WNW,295,0.0,3.0,53,-99.99,,,-99.99,VWS V14.01,2013-07-29 22:01:00,
2013-07-29 18:02:00,72.2,54.2,30.16,NW,308,0.0,0.0,53,-99.99,,,-99.99,VWS V14.01,2013-07-29 22:02:00,
2013-07-29 18:03:00,72.2,54.2,30.16,NW,308,0.0,0.0,53,-99.99,,,-99.99,VWS V14.01,2013-07-29 22:03:00,
2013-07-29 18:04:00,72.2,54.2,30.16,NW,308,0.0,0.0,53,-99.99,,,-99.99,VWS V14.01,2013-07-29 22:04:00,
2013-07-29 18:05:00,72.1,54.0,30.16,NNW,339,4.6,5.8,53,-99.99,,,-99.99,VWS V14.01,2013-07-29 22:05:00,
2013-07-29 18:06:00,72.1,53.9,30.16,West,270,0.0,4.6,53,-99.99,,,-99.99,VWS V14.01,2013-07-29 22:06:00,
2013-07-29 18:07:00,72.0,53.9,30.16,West,270,0.0,0.0,53,-99.99,,,-99.99,VWS V14.01,2013-07-29 22:07:00,
2013-07-29 18:08:00,72.1,54.0,30.16,West,270,0.0,0.0,53,-99.99,,,-99.99,VWS V14.01,2013-07-29 22:08:00,
2013-07-29 18:09:00,71.9,54.0,30.16,West,270,0.0,0.0,53,-99.99,,,-99.99,VWS V14.01,2013-07-29 22:09:00,
2013-07-29 18:10:00,72.1,54.2,30.16,West,270,0.0,0.0,53,-99.99,,,-99.99,VWS V14.01,2013-07-29 22:10:00,
2013-07-29 18:11:00,71.9,54.2,30.16,West,270,0.0,0.0,54,-99.99,,,-99.99,VWS V14.01,2013-07-29 22:11:00,
2013-07-29 18:12:00,72.0,54.4,30.16,West,270,0.0,0.0,54,-99.99,,,-99.99,VWS V14.01,2013-07-29 22:12:00,
2013-07-29 18:13:00,71.9,54.1,30.16,West,270,0.0,0.0,53,-99.99,,,-99.99,VWS V14.01,2013-07-29 22:13:00,
2013-07-29 18:14:00,71.9,54.1,30.16,North,350,0.0,9.8,53,-99.99,,,-99.99,VWS V14.01,2013-07-29 22:14:00,
2013-07-29 18:15:00,71.9,54.2,30.16,North,350,0.0,0.0,54,-99.99,,,-99.99,VWS V14.01,2013-07-29 22:15:00,
2013-07-29 18:16:00,71.8,54.1,30.16,West,280,3.3,5.1,54,-99.99,,,-99.99,VWS V14.01,2013-07-29 22:16:00,
2013-07-29 18:17:00,71.8,54.1,30.16,West,280,0.0,0.0,54,-99.99,,,-99.99,VWS V14.01,2013-07-29 22:17:00,
2013-07-29 18:18:00,71.8,54.3,30.16,West,280,0.0,0.0,54,-99.99,,,-99.99,VWS V14.01,2013-07-29 22:18:00,
2013-07-29 18:19:00,71.7,53.9,30.16,WNW,284,0.0,6.7,54,-99.99,,,-99.99,VWS V14.01,2013-07-29 22:19:00,
2013-07-29 18:20:00,71.8,53.9,30.16,NW,323,0.0,4.6,53,-99.99,,,-99.99,VWS V14.01,2013-07-29 22:20:00,
2013-07-29 18:21:00,71.7,53.8,30.16,NW,323,0.0,0.0,53,-99.99,,,-99.99,VWS V14.01,2013-07-29 22:21:00,
2013-07-29 18:22:00,71.7,54.1,30.16,WNW,298,3.4,3.4,54,-99.99,,,-99.99,VWS V14.01,2013-07-29 22:22:00,
2013-07-29 18:23:00,71.7,54.1,30.16,WNW,298,3.4,3.4,54,-99.99,,,-99.99,VWS V14.01,2013-07-29 22:23:00,
2013-07-29 18:24:00,71.5,53.8,30.16,WSW,242,3.5,5.8,54,-99.99,,,-99.99,VWS V14.01,2013-07-29 22:24:00,
2013-07-29 18:25:00,71.5,53.9,30.16,NW,312,4.8,5.8,54,-99.99,,,-99.99,VWS V14.01,2013-07-29 22:25:00,
2013-07-29 18:26:00,71.5,53.9,30.16,NW,312,0.0,4.8,54,-99.99,,,-99.99,VWS V14.01,2013-07-29 22:26:00,
2013-07-29 18:27:00,71.4,54.0,30.17,NNW,329,0.0,0.0,54,-99.99,,,-99.99,VWS V14.01,2013-07-29 22:27:00,
2013-07-29 18:28:00,71.4,54.0,30.17,NNW,329,0.0,4.2,54,-99.99,,,-99.99,VWS V14.01,2013-07-29 22:28:00,
2013-07-29 18:29:00,71.5,54.2,30.17,West,262,0.0,4.8,54,-99.99,,,-99.99,VWS V14.01,2013-07-29 22:29:00,
2013-07-29 18:30:00,71.4,54.0,30.17,WNW,287,0.0,5.1,54,-99.99,,,-99.99,VWS V14.01,2013-07-29 22:30:00,
2013-07-29 18:31:00,71.6,54.2,30.17,WNW,287,0.0,0.0,54,-99.99,,,-99.99,VWS V14.01,2013-07-29 22:31:00,
2013-07-29 18:32:00,71.5,54.2,30.17,West,270,0.0,4.7,54,-99.99,,,-99.99,VWS V14.01,2013-07-29 22:32:00,
2013-07-29 18:33:00,71.5,54.2,30.17,West,270,0.0,4.7,54,-99.99,,,-99.99,VWS V14.01,2013-07-29 22:33:00,
2013-07-29 18:34:00,71.4,54.2,30.17,West,270,0.0,0.0,55,-99.99,,,-99.99,VWS V14.01,2013-07-29 22:34:00,
2013-07-29 18:35:00,71.4,54.3,30.17,West,270,0.0,0.0,55,-99.99,,,-99.99,VWS V14.01,2013-07-29 22:35:00,
2013-07-29 18:36:00,71.4,54.3,30.17,WNW,297,0.0,3.5,55,-99.99,,,-99.99,VWS V14.01,2013-07-29 22:36:00,
2013-07-29 18:37:00,71.4,54.5,30.17,WNW,297,0.0,1.9,55,-99.99,,,-99.99,VWS V14.01,2013-07-29 22:37:00,
2013-07-29 18:38:00,71.4,54.5,30.17,WNW,297,1.9,2.5,55,-99.99,,,-99.99,VWS V14.01,2013-07-29 22:38:00,
2013-07-29 18:39:00,71.4,54.4,30.17,WNW,297,0.0,1.9,55,-99.99,,,-99.99,VWS V14.01,2013-07-29 22:39:00,
2013-07-29 18:40:00,71.3,54.3,30.17,WNW,297,0.0,0.0,55,-99.99,,,-99.99,VWS V14.01,2013-07-29 22:40:00,
2013-07-29 18:41:00,71.3,54.3,30.17,WNW,297,0.0,0.0,55,-99.99,,,-99.99,VWS V14.01,2013-07-29 22:41:00,
2013-07-29 18:42:00,71.3,54.4,30.17,NNW,339,5.2,6.2,55,-99.99,,,-99.99,VWS V14.01,2013-07-29 22:42:00,
2013-07-29 18:43:00,71.3,54.6,30.17,NNW,340,0.0,0.0,56,-99.99,,,-99.99,VWS V14.01,2013-07-29 22:43:00,
2013-07-29 18:44:00,71.3,54.5,30.17,NNW,340,0.0,0.0,55,-99.99,,,-99.99,VWS V14.01,2013-07-29 22:44:00,
2013-07-29 18:45:00,71.2,54.5,30.17,NNW,340,0.0,0.0,56,-99.99,,,-99.99,VWS V14.01,2013-07-29 22:45:00,
2013-07-29 18:46:00,71.2,54.6,30.17,NNW,340,0.0,0.0,56,-99.99,,,-99.99,VWS V14.01,2013-07-29 22:46:00,
2013-07-29 18:47:00,71.1,54.5,30.17,NNW,340,0.0,0.0,56,-99.99,,,-99.99,VWS V14.01,2013-07-29 22:47:00,
2013-07-29 18:48:00,71.1,54.7,30.17,North,6,0.0,0.0,56,-99.99,,,-99.99,VWS V14.01,2013-07-29 22:48:00,
2013-07-29 18:49:00,71.1,54.6,30.17,North,6,0.0,0.0,56,-99.99,,,-99.99,VWS V14.01,2013-07-29 22:49:00,
2013-07-29 18:50:00,71.1,54.7,30.17,North,6,0.0,0.0,56,-99.99,,,-99.99,VWS V14.01,2013-07-29 22:50:00,
2013-07-29 18:51:00,71.0,54.6,30.17,North,6,0.0,0.0,56,-99.99,,,-99.99,VWS V14.01,2013-07-29 22:51:00,
2013-07-29 18:52:00,71.1,54.8,30.17,North,6,0.0,0.0,56,-99.99,,,-99.99,VWS V14.01,2013-07-29 22:52:00,
2013-07-29 18:53:00,70.9,54.6,30.17,North,6,0.0,0.0,56,-99.99,,,-99.99,VWS V14.01,2013-07-29 22:53:00,
2013-07-29 18:54:00,70.9,54.6,30.17,North,6,0.0,0.0,56,-99.99,,,-99.99,VWS V14.01,2013-07-29 22:54:00,
2013-07-29 18:55:00,70.9,54.7,30.17,North,6,0.0,0.0,56,-99.99,,,-99.99,VWS V14.01,2013-07-29 22:55:00,
2013-07-29 18:56:00,70.9,54.7,30.17,North,6,0.0,0.0,56,-99.99,,,-99.99,VWS V14.01,2013-07-29 22:56:00,
2013-07-29 18:57:00,70.9,54.9,30.17,North,6,0.0,0.0,57,-99.99,,,-99.99,VWS V14.01,2013-07-29 22:57:00,
2013-07-29 18:58:00,70.9,55.0,30.18,North,6,0.0,0.0,57,-99.99,,,-99.99,VWS V14.01,2013-07-29 22:58:00,
2013-07-29 18:59:00,70.8,54.8,30.17,North,6,0.0,0.0,57,-99.99,,,-99.99,VWS V14.01,2013-07-29 22:59:00,
2013-07-29 19:00:00,70.8,54.9,30.17,North,6,0.0,0.0,57,-99.99,,,-99.99,VWS V14.01,2013-07-29 23:00:00,
2013-07-29 19:01:00,70.7,54.8,30.17,North,6,0.0,0.0,57,-99.99,,,-99.99,VWS V14.01,2013-07-29 23:01:00,
2013-07-29 19:02:00,70.6,54.8,30.17,North,6,0.0,0.0,57,-99.99,,,-99.99,VWS V14.01,2013-07-29 23:02:00,
2013-07-29 19:03:00,70.7,55.0,30.17,West,276,4.3,6.0,58,-99.99,,,-99.99,VWS V14.01,2013-07-29 23:03:00,
2013-07-29 19:04:00,70.6,54.9,30.17,NW,315,3.2,6.0,58,-99.99,,,-99.99,VWS V14.01,2013-07-29 23:04:00,
2013-07-29 19:05:00,70.6,54.9,30.17,NW,315,0.0,3.2,58,-99.99,,,-99.99,VWS V14.01,2013-07-29 23:05:00,
2013-07-29 19:06:00,70.5,54.8,30.17,NW,315,0.0,0.0,58,-99.99,,,-99.99,VWS V14.01,2013-07-29 23:06:00,
2013-07-29 19:07:00,70.4,54.8,30.17,NW,315,0.0,0.0,58,-99.99,,,-99.99,VWS V14.01,2013-07-29 23:07:00,
2013-07-29 19:08:00,70.3,54.7,30.18,NNW,346,4.8,4.8,58,-99.99,,,-99.99,VWS V14.01,2013-07-29 23:08:00,
2013-07-29 19:09:00,70.3,54.9,30.17,NW,321,3.3,5.1,58,-99.99,,,-99.99,VWS V14.01,2013-07-29 23:09:00,
2013-07-29 19:10:00,70.2,54.8,30.17,North,349,0.0,5.2,58,-99.99,,,-99.99,VWS V14.01,2013-07-29 23:10:00,
2013-07-29 19:11:00,70.2,54.8,30.17,North,349,0.0,0.0,58,-99.99,,,-99.99,VWS V14.01,2013-07-29 23:11:00,
2013-07-29 19:12:00,70.1,54.8,30.17,North,349,0.0,0.0,58,-99.99,,,-99.99,VWS V14.01,2013-07-29 23:12:00,
2013-07-29 19:13:00,70.0,54.9,30.18,North,349,0.0,0.0,59,-99.99,,,-99.99,VWS V14.01,2013-07-29 23:13:00,
2013-07-29 19:15:00,70.0,54.9,30.18,North,349,0.0,0.0,59,-99.99,,,-99.99,VWS V14.01,2013-07-29 23:15:00,
2013-07-29 19:16:00,70.1,55.0,30.18,North,349,0.0,0.0,59,-99.99,,,-99.99,VWS V14.01,2013-07-29 23:16:00,
2013-07-29 19:17:00,69.9,54.9,30.18,North,349,0.0,0.0,59,-99.99,,,-99.99,VWS V14.01,2013-07-29 23:17:00,
2013-07-29 19:18:00,70.0,55.1,30.18,North,349,0.0,0.0,59,-99.99,,,-99.99,VWS V14.01,2013-07-29 23:18:00,
2013-07-29 19:19:00,70.0,55.1,30.18,North,349,0.0,0.0,59,-99.99,,,-99.99,VWS V14.01,2013-07-29 23:19:00,
2013-07-29 19:20:00,69.9,55.1,30.18,North,349,0.0,0.0,59,-99.99,,,-99.99,VWS V14.01,2013-07-29 23:20:00,
2013-07-29 19:21:00,69.9,55.0,30.18,North,349,0.0,0.0,59,-99.99,,,-99.99,VWS V14.01,2013-07-29 23:21:00,
2013-07-29 19:22:00,69.9,55.1,30.18,North,349,0.0,0.0,59,-99.99,,,-99.99,VWS V14.01,2013-07-29 23:22:00,
2013-07-29 19:23:00,69.8,55.0,30.18,North,349,0.0,0.0,59,-99.99,,,-99.99,VWS V14.01,2013-07-29 23:23:00,
2013-07-29 19:24:00,69.8,55.1,30.18,North,349,0.0,0.0,60,-99.99,,,-99.99,VWS V14.01,2013-07-29 23:24:00,
2013-07-29 19:25:00,69.8,55.1,30.18,North,349,0.0,0.0,60,-99.99,,,-99.99,VWS V14.01,2013-07-29 23:25:00,
2013-07-29 19:26:00,69.8,55.0,30.18,North,349,0.0,0.0,59,-99.99,,,-99.99,VWS V14.01,2013-07-29 23:26:00,
2013-07-29 19:27:00,69.7,55.1,30.18,North,349,0.0,0.0,60,-99.99,,,-99.99,VWS V14.01,2013-07-29 23:27:00,
2013-07-29 19:28:00,69.6,55.0,30.18,North,349,0.0,0.0,60,-99.99,,,-99.99,VWS V14.01,2013-07-29 23:28:00,
2013-07-29 19:29:00,69.7,55.1,30.18,North,349,0.0,0.0,60,-99.99,,,-99.99,VWS V14.01,2013-07-29 23:29:00,
2013-07-29 19:30:00,69.7,55.1,30.18,North,349,0.0,0.0,60,-99.99,,,-99.99,VWS V14.01,2013-07-29 23:30:00,
2013-07-29 19:31:00,69.6,55.0,30.18,North,349,0.0,0.0,60,-99.99,,,-99.99,VWS V14.01,2013-07-29 23:31:00,
2013-07-29 19:32:00,69.5,55.0,30.18,North,349,0.0,0.0,60,-99.99,,,-99.99,VWS V14.01,2013-07-29 23:32:00,
2013-07-29 19:33:00,69.6,55.1,30.18,South,176,0.0,4.3,60,-99.99,,,-99.99,VWS V14.01,2013-07-29 23:33:00,
2013-07-29 19:34:00,69.5,55.0,30.18,South,176,0.0,4.3,60,-99.99,,,-99.99,VWS V14.01,2013-07-29 23:34:00,
2013-07-29 19:35:00,69.5,55.0,30.18,South,176,0.0,0.0,60,-99.99,,,-99.99,VWS V14.01,2013-07-29 23:35:00,
2013-07-29 19:36:00,69.5,55.1,30.18,South,176,0.0,0.0,60,-99.99,,,-99.99,VWS V14.01,2013-07-29 23:36:00,
2013-07-29 19:37:00,69.5,55.1,30.18,South,176,0.0,0.0,60,-99.99,,,-99.99,VWS V14.01,2013-07-29 23:37:00,
2013-07-29 19:38:00,69.4,55.0,30.18,South,176,0.0,0.0,60,-99.99,,,-99.99,VWS V14.01,2013-07-29 23:38:00,
2013-07-29 19:39:00,69.4,55.0,30.18,South,176,0.0,0.0,60,-99.99,,,-99.99,VWS V14.01,2013-07-29 23:39:00,
2013-07-29 19:40:00,69.4,55.1,30.18,South,176,0.0,0.0,60,-99.99,,,-99.99,VWS V14.01,2013-07-29 23:40:00,
2013-07-29 19:41:00,69.4,55.2,30.18,South,176,0.0,0.0,61,-99.99,,,-99.99,VWS V14.01,2013-07-29 23:41:00,
2013-07-29 19:42:00,69.4,55.2,30.18,South,176,0.0,0.0,60,-99.99,,,-99.99,VWS V14.01,2013-07-29 23:42:00,
2013-07-29 19:43:00,69.2,55.1,30.18,South,176,0.0,0.0,61,-99.99,,,-99.99,VWS V14.01,2013-07-29 23:43:00,
2013-07-29 19:45:00,69.2,55.1,30.18,South,176,0.0,0.0,61,-99.99,,,-99.99,VWS V14.01,2013-07-29 23:45:00,
2013-07-29 19:46:00,69.2,55.1,30.19,South,176,0.0,0.0,61,-99.99,,,-99.99,VWS V14.01,2013-07-29 23:46:00,
2013-07-29 19:47:00,69.2,55.2,30.18,South,176,0.0,0.0,61,-99.99,,,-99.99,VWS V14.01,2013-07-29 23:47:00,
2013-07-29 19:48:00,69.2,55.2,30.19,South,176,0.0,0.0,61,-99.99,,,-99.99,VWS V14.01,2013-07-29 23:48:00,
2013-07-29 19:49:00,69.1,55.2,30.19,South,176,0.0,0.0,61,-99.99,,,-99.99,VWS V14.01,2013-07-29 23:49:00,
2013-07-29 19:50:00,69.1,55.2,30.19,NNW,336,4.4,4.4,61,-99.99,,,-99.99,VWS V14.01,2013-07-29 23:50:00,
2013-07-29 19:51:00,69.2,55.3,30.19,North,354,0.0,4.4,61,-99.99,,,-99.99,VWS V14.01,2013-07-29 23:51:00,
2013-07-29 19:52:00,69.1,55.2,30.19,North,354,0.0,0.0,61,-99.99,,,-99.99,VWS V14.01,2013-07-29 23:52:00,
2013-07-29 19:53:00,69.0,55.2,30.19,WSW,257,0.0,0.0,62,-99.99,,,-99.99,VWS V14.01,2013-07-29 23:53:00,
2013-07-29 19:54:00,69.0,55.2,30.19,WSW,257,0.0,4.5,62,-99.99,,,-99.99,VWS V14.01,2013-07-29 23:54:00,
2013-07-29 19:55:00,69.0,55.2,30.19,WSW,257,0.0,0.0,62,-99.99,,,-99.99,VWS V14.01,2013-07-29 23:55:00,
2013-07-29 19:56:00,69.0,55.3,30.19,WSW,257,0.0,0.0,62,-99.99,,,-99.99,VWS V14.01,2013-07-29 23:56:00,
2013-07-29 19:57:00,68.9,55.2,30.19,WSW,257,0.0,0.0,62,-99.99,,,-99.99,VWS V14.01,2013-07-29 23:57:00,
2013-07-29 19:58:00,68.9,55.4,30.19,WSW,257,0.0,0.0,62,-99.99,,,-99.99,VWS V14.01,2013-07-29 23:58:00,
2013-07-29 19:59:00,68.9,55.4,30.19,WSW,257,0.0,0.0,62,-99.99,,,-99.99,VWS V14.01,2013-07-29 23:59:00,
2013-07-29 20:00:00,68.9,55.4,30.18,WSW,257,0.0,0.0,62,-99.99,,,-99.99,VWS V14.01,2013-07-30 00:00:00,
2013-07-29 20:01:00,68.9,55.4,30.19,WSW,257,0.0,2.2,62,-99.99,,,-99.99,VWS V14.01,2013-07-30 00:01:00,
2013-07-29 20:02:00,68.9,55.5,30.19,WSW,257,0.0,0.0,62,-99.99,,,-99.99,VWS V14.01,2013-07-30 00:02:00,
2013-07-29 20:03:00,68.8,55.4,30.19,WSW,257,0.0,0.0,62,-99.99,,,-99.99,VWS V14.01,2013-07-30 00:03:00,
2013-07-29 20:04:00,68.8,55.4,30.19,WSW,257,0.0,0.0,62,-99.99,,,-99.99,VWS V14.01,2013-07-30 00:04:00,
2013-07-29 20:05:00,68.8,55.5,30.19,WSW,257,0.0,0.0,62,-99.99,,,-99.99,VWS V14.01,2013-07-30 00:05:00,
2013-07-29 20:06:00,68.8,55.5,30.19,WSW,257,0.0,0.0,63,-99.99,,,-99.99,VWS V14.01,2013-07-30 00:06:00,
2013-07-29 20:07:00,68.9,55.6,30.19,WSW,257,0.0,0.0,63,-99.99,,,-99.99,VWS V14.01,2013-07-30 00:07:00,
2013-07-29 20:08:00,68.8,55.6,30.19,WSW,257,0.0,0.0,63,-99.99,,,-99.99,VWS V14.01,2013-07-30 00:08:00,
2013-07-29 20:09:00,68.7,55.5,30.19,WSW,257,0.0,0.0,63,-99.99,,,-99.99,VWS V14.01,2013-07-30 00:09:00,
2013-07-29 20:10:00,68.7,55.5,30.19,WSW,257,0.0,0.0,63,-99.99,,,-99.99,VWS V14.01,2013-07-30 00:10:00,
2013-07-29 20:11:00,68.8,55.7,30.19,WSW,257,0.0,0.0,63,-99.99,,,-99.99,VWS V14.01,2013-07-30 00:11:00,
2013-07-29 20:12:00,68.7,55.6,30.19,WSW,257,0.0,0.0,63,-99.99,,,-99.99,VWS V14.01,2013-07-30 00:12:00,
2013-07-29 20:13:00,68.8,55.8,30.19,WSW,257,0.0,0.0,63,-99.99,,,-99.99,VWS V14.01,2013-07-30 00:13:00,
2013-07-29 20:14:00,68.7,55.7,30.19,WSW,257,0.0,0.0,63,-99.99,,,-99.99,VWS V14.01,2013-07-30 00:14:00,
2013-07-29 20:15:00,68.7,55.7,30.19,WSW,257,0.0,0.0,63,-99.99,,,-99.99,VWS V14.01,2013-07-30 00:15:00,
2013-07-29 20:16:00,68.6,55.6,30.19,WSW,257,0.0,0.0,63,-99.99,,,-99.99,VWS V14.01,2013-07-30 00:16:00,
2013-07-29 20:17:00,68.6,55.6,30.19,WSW,257,0.0,0.0,63,-99.99,,,-99.99,VWS V14.01,2013-07-30 00:17:00,
2013-07-29 20:18:00,68.5,55.6,30.19,WSW,257,0.0,0.0,63,-99.99,,,-99.99,VWS V14.01,2013-07-30 00:18:00,
2013-07-29 20:19:00,68.6,55.9,30.19,WSW,257,0.0,0.0,64,-99.99,,,-99.99,VWS V14.01,2013-07-30 00:19:00,
2013-07-29 20:20:00,68.5,55.8,30.20,WSW,257,0.0,0.0,64,-99.99,,,-99.99,VWS V14.01,2013-07-30 00:20:00,
2013-07-29 20:21:00,68.5,55.9,30.20,WSW,257,0.0,0.0,64,-99.99,,,-99.99,VWS V14.01,2013-07-30 00:21:00,
2013-07-29 20:22:00,68.6,56.2,30.19,WSW,257,0.0,0.0,64,-99.99,,,-99.99,VWS V14.01,2013-07-30 00:22:00,
2013-07-29 20:23:00,68.6,56.2,30.19,WSW,257,0.0,0.0,65,-99.99,,,-99.99,VWS V14.01,2013-07-30 00:23:00,
2013-07-29 20:24:00,68.4,56.1,30.20,WSW,257,0.0,0.0,65,-99.99,,,-99.99,VWS V14.01,2013-07-30 00:24:00,
2013-07-29 20:25:00,68.5,56.1,30.20,WSW,257,0.0,0.0,64,-99.99,,,-99.99,VWS V14.01,2013-07-30 00:25:00,
2013-07-29 20:26:00,68.3,56.0,30.20,WSW,257,0.0,0.0,65,-99.99,,,-99.99,VWS V14.01,2013-07-30 00:26:00,
2013-07-29 20:27:00,68.4,56.2,30.20,WSW,257,0.0,0.0,65,-99.99,,,-99.99,VWS V14.01,2013-07-30 00:27:00,
2013-07-29 20:28:00,68.4,56.2,30.20,WSW,257,0.0,0.0,65,-99.99,,,-99.99,VWS V14.01,2013-07-30 00:28:00,
2013-07-29 20:29:00,68.2,56.0,30.20,WSW,257,0.0,0.0,65,-99.99,,,-99.99,VWS V14.01,2013-07-30 00:29:00,
2013-07-29 20:30:00,68.2,56.0,30.20,WSW,257,0.0,0.0,65,-99.99,,,-99.99,VWS V14.01,2013-07-30 00:30:00,
2013-07-29 20:31:00,68.3,56.2,30.20,WSW,257,0.0,0.0,65,-99.99,,,-99.99,VWS V14.01,2013-07-30 00:31:00,
2013-07-29 20:32:00,68.2,56.2,30.20,WSW,257,0.0,0.0,65,-99.99,,,-99.99,VWS V14.01,2013-07-30 00:32:00,
2013-07-29 20:33:00,68.1,56.2,30.20,WSW,257,0.0,0.0,66,-99.99,,,-99.99,VWS V14.01,2013-07-30 00:33:00,
2013-07-29 20:34:00,68.2,56.4,30.20,WSW,257,0.0,0.0,66,-99.99,,,-99.99,VWS V14.01,2013-07-30 00:34:00,
2013-07-29 20:35:00,68.1,56.4,30.20,WSW,257,0.0,0.0,66,-99.99,,,-99.99,VWS V14.01,2013-07-30 00:35:00,
2013-07-29 20:36:00,68.0,56.3,30.20,WSW,257,0.0,0.0,66,-99.99,,,-99.99,VWS V14.01,2013-07-30 00:36:00,
2013-07-29 20:37:00,68.0,56.4,30.20,WSW,257,0.0,0.0,66,-99.99,,,-99.99,VWS V14.01,2013-07-30 00:37:00,
2013-07-29 20:38:00,68.0,56.5,30.20,WSW,257,0.0,0.0,67,-99.99,,,-99.99,VWS V14.01,2013-07-30 00:38:00,
2013-07-29 20:39:00,68.0,56.7,30.20,WSW,257,0.0,0.0,67,-99.99,,,-99.99,VWS V14.01,2013-07-30 00:39:00,
2013-07-29 20:40:00,68.0,56.7,30.20,WSW,257,0.0,0.0,67,-99.99,,,-99.99,VWS V14.01,2013-07-30 00:40:00,
2013-07-29 20:41:00,67.8,56.6,30.20,WSW,257,0.0,0.0,67,-99.99,,,-99.99,VWS V14.01,2013-07-30 00:41:00,
2013-07-29 20:42:00,67.9,56.8,30.20,WSW,257,0.0,0.0,68,-99.99,,,-99.99,VWS V14.01,2013-07-30 00:42:00,
2013-07-29 20:43:00,67.8,56.8,30.20,WSW,257,0.0,0.0,68,-99.99,,,-99.99,VWS V14.01,2013-07-30 00:43:00,
2013-07-29 20:44:00,67.7,56.8,30.20,WSW,257,0.0,0.0,68,-99.99,,,-99.99,VWS V14.01,2013-07-30 00:44:00,
2013-07-29 20:45:00,67.6,56.7,30.20,WSW,257,0.0,0.0,68,-99.99,,,-99.99,VWS V14.01,2013-07-30 00:45:00,
2013-07-29 20:46:00,67.6,56.8,30.20,WSW,257,0.0,0.0,68,-99.99,,,-99.99,VWS V14.01,2013-07-30 00:46:00,
2013-07-29 20:47:00,67.5,56.7,30.20,WSW,257,0.0,0.0,68,-99.99,,,-99.99,VWS V14.01,2013-07-30 00:47:00,
2013-07-29 20:48:00,67.5,56.8,30.20,WSW,257,0.0,0.0,68,-99.99,,,-99.99,VWS V14.01,2013-07-30 00:48:00,
2013-07-29 20:49:00,67.4,56.7,30.20,WSW,257,0.0,0.0,69,-99.99,,,-99.99,VWS V14.01,2013-07-30 00:49:00,
2013-07-29 20:50:00,67.4,56.7,30.20,WSW,257,0.0,0.0,69,-99.99,,,-99.99,VWS V14.01,2013-07-30 00:50:00,
2013-07-29 20:51:00,67.2,56.6,30.20,WSW,257,0.0,0.0,69,-99.99,,,-99.99,VWS V14.01,2013-07-30 00:51:00,
2013-07-29 20:52:00,67.3,56.8,30.20,WSW,257,0.0,0.0,69,-99.99,,,-99.99,VWS V14.01,2013-07-30 00:52:00,
2013-07-29 20:53:00,67.1,56.6,30.20,WSW,257,0.0,0.0,69,-99.99,,,-99.99,VWS V14.01,2013-07-30 00:53:00,
2013-07-29 20:54:00,67.0,56.7,30.20,WSW,257,0.0,0.0,70,-99.99,,,-99.99,VWS V14.01,2013-07-30 00:54:00,
2013-07-29 20:55:00,67.0,56.7,30.20,WSW,257,0.0,0.0,70,-99.99,,,-99.99,VWS V14.01,2013-07-30 00:55:00,
2013-07-29 20:56:00,66.9,56.7,30.20,WSW,257,0.0,0.0,70,-99.99,,,-99.99,VWS V14.01,2013-07-30 00:56:00,
2013-07-29 20:57:00,67.0,56.9,30.20,WSW,257,0.0,0.0,70,-99.99,,,-99.99,VWS V14.01,2013-07-30 00:57:00,
2013-07-29 20:58:00,67.0,56.8,30.20,WSW,257,0.0,0.0,70,-99.99,,,-99.99,VWS V14.01,2013-07-30 00:58:00,
2013-07-29 20:59:00,66.8,56.5,30.20,WSW,257,0.0,0.0,70,-99.99,,,-99.99,VWS V14.01,2013-07-30 00:59:00,
2013-07-29 21:00:00,66.8,56.5,30.20,WSW,257,0.0,0.0,70,-99.99,,,-99.99,VWS V14.01,2013-07-30 01:00:00,
2013-07-29 21:01:00,66.7,56.8,30.20,WSW,257,0.0,0.0,71,-99.99,,,-99.99,VWS V14.01,2013-07-30 01:01:00,
2013-07-29 21:02:00,66.6,56.9,30.20,WSW,257,0.0,0.0,71,-99.99,,,-99.99,VWS V14.01,2013-07-30 01:02:00,
2013-07-29 21:03:00,66.5,56.9,30.21,WSW,257,0.0,0.0,71,-99.99,,,-99.99,VWS V14.01,2013-07-30 01:03:00,
2013-07-29 21:04:00,66.3,56.9,30.21,WSW,257,0.0,0.0,72,-99.99,,,-99.99,VWS V14.01,2013-07-30 01:04:00,
2013-07-29 21:05:00,66.3,56.9,30.21,WSW,257,0.0,0.0,72,-99.99,,,-99.99,VWS V14.01,2013-07-30 01:05:00,
2013-07-29 21:06:00,66.2,56.9,30.21,WSW,257,0.0,0.0,72,-99.99,,,-99.99,VWS V14.01,2013-07-30 01:06:00,
2013-07-29 21:07:00,66.2,57.0,30.21,WSW,257,0.0,0.0,72,-99.99,,,-99.99,VWS V14.01,2013-07-30 01:07:00,
2013-07-29 21:08:00,66.1,57.0,30.21,WSW,257,0.0,0.0,72,-99.99,,,-99.99,VWS V14.01,2013-07-30 01:08:00,
2013-07-29 21:09:00,65.9,56.9,30.21,WSW,257,0.0,0.0,73,-99.99,,,-99.99,VWS V14.01,2013-07-30 01:09:00,
2013-07-29 21:10:00,65.9,56.9,30.21,WSW,257,0.0,0.0,73,-99.99,,,-99.99,VWS V14.01,2013-07-30 01:10:00,
2013-07-29 21:11:00,66.0,57.1,30.21,WSW,257,0.0,0.0,73,-99.99,,,-99.99,VWS V14.01,2013-07-30 01:11:00,
2013-07-29 21:12:00,65.9,57.0,30.21,WSW,257,0.0,0.0,73,-99.99,,,-99.99,VWS V14.01,2013-07-30 01:12:00,
2013-07-29 21:13:00,66.0,57.2,30.21,WSW,257,0.0,0.0,73,-99.99,,,-99.99,VWS V14.01,2013-07-30 01:13:00,
2013-07-29 21:14:00,65.9,57.1,30.21,WSW,257,0.0,0.0,73,-99.99,,,-99.99,VWS V14.01,2013-07-30 01:14:00,
2013-07-29 21:15:00,65.9,57.1,30.21,WSW,257,0.0,0.0,73,-99.99,,,-99.99,VWS V14.01,2013-07-30 01:15:00,
2013-07-29 21:16:00,65.9,57.1,30.22,WSW,257,0.0,0.0,73,-99.99,,,-99.99,VWS V14.01,2013-07-30 01:16:00,
2013-07-29 21:17:00,65.8,57.0,30.22,WSW,257,0.0,0.0,73,-99.99,,,-99.99,VWS V14.01,2013-07-30 01:17:00,
2013-07-29 21:18:00,65.8,57.0,30.22,WSW,257,0.0,0.0,73,-99.99,,,-99.99,VWS V14.01,2013-07-30 01:18:00,
2013-07-29 21:19:00,65.8,57.1,30.22,WSW,257,0.0,0.0,74,-99.99,,,-99.99,VWS V14.01,2013-07-30 01:19:00,
2013-07-29 21:20:00,65.8,57.1,30.22,WSW,257,0.0,0.0,74,-99.99,,,-99.99,VWS V14.01,2013-07-30 01:20:00,
2013-07-29 21:21:00,65.7,57.1,30.22,WSW,257,0.0,0.0,74,-99.99,,,-99.99,VWS V14.01,2013-07-30 01:21:00,
2013-07-29 21:22:00,65.8,57.3,30.22,WSW,257,0.0,0.0,74,-99.99,,,-99.99,VWS V14.01,2013-07-30 01:22:00,
2013-07-29 21:23:00,65.7,57.2,30.22,WSW,257,0.0,0.0,74,-99.99,,,-99.99,VWS V14.01,2013-07-30 01:23:00,
2013-07-29 21:24:00,65.7,57.3,30.22,WSW,257,0.0,0.0,74,-99.99,,,-99.99,VWS V14.01,2013-07-30 01:24:00,
2013-07-29 21:25:00,65.6,57.2,30.22,WSW,257,0.0,0.0,74,-99.99,,,-99.99,VWS V14.01,2013-07-30 01:25:00,
2013-07-29 21:26:00,65.6,57.2,30.22,WSW,257,0.0,0.0,74,-99.99,,,-99.99,VWS V14.01,2013-07-30 01:26:00,
2013-07-29 21:27:00,65.5,57.3,30.22,WSW,257,0.0,0.0,75,-99.99,,,-99.99,VWS V14.01,2013-07-30 01:27:00,
2013-07-29 21:28:00,65.6,57.5,30.22,WSW,257,0.0,0.0,75,-99.99,,,-99.99,VWS V14.01,2013-07-30 01:28:00,
2013-07-29 21:29:00,65.5,57.5,30.22,WSW,257,0.0,0.0,75,-99.99,,,-99.99,VWS V14.01,2013-07-30 01:29:00,
2013-07-29 21:30:00,65.5,57.5,30.22,WSW,257,0.0,0.0,75,-99.99,,,-99.99,VWS V14.01,2013-07-30 01:30:00,
2013-07-29 21:31:00,65.5,57.6,30.22,WSW,257,0.0,0.0,76,-99.99,,,-99.99,VWS V14.01,2013-07-30 01:31:00,
2013-07-29 21:32:00,65.4,57.5,30.22,WSW,257,0.0,0.0,76,-99.99,,,-99.99,VWS V14.01,2013-07-30 01:32:00,
2013-07-29 21:33:00,65.4,57.5,30.22,WSW,257,0.0,0.0,76,-99.99,,,-99.99,VWS V14.01,2013-07-30 01:33:00,
2013-07-29 21:34:00,65.3,57.5,30.22,WSW,257,0.0,0.0,76,-99.99,,,-99.99,VWS V14.01,2013-07-30 01:34:00,
2013-07-29 21:35:00,65.3,57.6,30.22,WSW,257,0.0,0.0,76,-99.99,,,-99.99,VWS V14.01,2013-07-30 01:35:00,
2013-07-29 21:36:00,65.3,57.6,30.22,WSW,257,0.0,0.0,76,-99.99,,,-99.99,VWS V14.01,2013-07-30 01:36:00,
2013-07-29 21:37:00,65.2,57.5,30.22,WSW,257,0.0,0.0,76,-99.99,,,-99.99,VWS V14.01,2013-07-30 01:37:00,
2013-07-29 21:38:00,65.2,57.5,30.22,WSW,257,0.0,0.0,76,-99.99,,,-99.99,VWS V14.01,2013-07-30 01:38:00,
2013-07-29 21:39:00,65.0,57.3,30.22,WSW,257,0.0,0.0,76,-99.99,,,-99.99,VWS V14.01,2013-07-30 01:39:00,
2013-07-29 21:40:00,64.9,57.3,30.22,WSW,257,0.0,0.0,76,-99.99,,,-99.99,VWS V14.01,2013-07-30 01:40:00,
2013-07-29 21:41:00,64.9,57.3,30.22,WSW,257,0.0,0.0,76,-99.99,,,-99.99,VWS V14.01,2013-07-30 01:41:00,
2013-07-29 21:42:00,64.9,57.4,30.22,WSW,257,0.0,0.0,77,-99.99,,,-99.99,VWS V14.01,2013-07-30 01:42:00,
2013-07-29 21:43:00,64.8,57.4,30.23,WSW,257,0.0,0.0,77,-99.99,,,-99.99,VWS V14.01,2013-07-30 01:43:00,
2013-07-29 21:44:00,64.7,57.3,30.23,WSW,257,0.0,0.0,77,-99.99,,,-99.99,VWS V14.01,2013-07-30 01:44:00,
2013-07-29 21:45:00,64.8,57.5,30.23,WSW,257,0.0,0.0,77,-99.99,,,-99.99,VWS V14.01,2013-07-30 01:45:00,
2013-07-29 21:46:00,64.6,57.3,30.23,WSW,257,0.0,0.0,77,-99.99,,,-99.99,VWS V14.01,2013-07-30 01:46:00,
2013-07-29 21:47:00,64.6,57.4,30.23,WSW,257,0.0,0.0,78,-99.99,,,-99.99,VWS V14.01,2013-07-30 01:47:00,
2013-07-29 21:48:00,64.6,57.5,30.23,WSW,257,0.0,0.0,78,-99.99,,,-99.99,VWS V14.01,2013-07-30 01:48:00,
2013-07-29 21:49:00,64.5,57.5,30.23,WSW,257,0.0,0.0,78,-99.99,,,-99.99,VWS V14.01,2013-07-30 01:49:00,
2013-07-29 21:50:00,64.4,57.4,30.23,WSW,257,0.0,0.0,78,-99.99,,,-99.99,VWS V14.01,2013-07-30 01:50:00,
2013-07-29 21:51:00,64.4,57.4,30.23,WSW,257,0.0,0.0,78,-99.99,,,-99.99,VWS V14.01,2013-07-30 01:51:00,
2013-07-29 21:52:00,64.4,57.5,30.23,WSW,257,0.0,0.0,78,-99.99,,,-99.99,VWS V14.01,2013-07-30 01:52:00,
2013-07-29 21:53:00,64.4,57.5,30.23,WSW,257,0.0,0.0,78,-99.99,,,-99.99,VWS V14.01,2013-07-30 01:53:00,
2013-07-29 21:54:00,64.3,57.4,30.23,WSW,257,0.0,0.0,78,-99.99,,,-99.99,VWS V14.01,2013-07-30 01:54:00,
2013-07-29 21:55:00,64.2,57.4,30.23,WSW,257,0.0,0.0,78,-99.99,,,-99.99,VWS V14.01,2013-07-30 01:55:00,
2013-07-29 21:56:00,64.2,57.4,30.23,WSW,257,0.0,0.0,78,-99.99,,,-99.99,VWS V14.01,2013-07-30 01:56:00,
2013-07-29 21:57:00,64.1,57.2,30.23,WSW,257,0.0,0.0,78,-99.99,,,-99.99,VWS V14.01,2013-07-30 01:57:00,
2013-07-29 21:58:00,64.0,57.2,30.23,WSW,257,0.0,0.0,78,-99.99,,,-99.99,VWS V14.01,2013-07-30 01:58:00,
2013-07-29 21:59:00,64.0,57.3,30.23,WSW,257,0.0,0.0,79,-99.99,,,-99.99,VWS V14.01,2013-07-30 01:59:00,
2013-07-29 22:00:00,63.8,57.3,30.23,WSW,257,0.0,0.0,79,-99.99,,,-99.99,VWS V14.01,2013-07-30 02:00:00,
2013-07-29 22:01:00,63.9,57.4,30.23,WSW,257,0.0,0.0,79,-99.99,,,-99.99,VWS V14.01,2013-07-30 02:01:00,
2013-07-29 22:02:00,63.9,57.4,30.23,WSW,257,0.0,0.0,79,-99.99,,,-99.99,VWS V14.01,2013-07-30 02:02:00,
2013-07-29 22:03:00,63.7,57.3,30.23,WSW,257,0.0,0.0,80,-99.99,,,-99.99,VWS V14.01,2013-07-30 02:03:00,
2013-07-29 22:04:00,63.8,57.4,30.23,WSW,257,0.0,0.0,80,-99.99,,,-99.99,VWS V14.01,2013-07-30 02:04:00,
2013-07-29 22:05:00,63.6,57.3,30.23,WSW,257,0.0,0.0,80,-99.99,,,-99.99,VWS V14.01,2013-07-30 02:05:00,
2013-07-29 22:06:00,63.6,57.3,30.23,WSW,257,0.0,0.0,80,-99.99,,,-99.99,VWS V14.01,2013-07-30 02:06:00,
2013-07-29 22:07:00,63.6,57.4,30.23,WSW,257,0.0,0.0,80,-99.99,,,-99.99,VWS V14.01,2013-07-30 02:07:00,
2013-07-29 22:08:00,63.6,57.4,30.23,WSW,257,0.0,0.0,80,-99.99,,,-99.99,VWS V14.01,2013-07-30 02:08:00,
2013-07-29 22:09:00,63.6,57.5,30.23,WSW,257,0.0,0.0,80,-99.99,,,-99.99,VWS V14.01,2013-07-30 02:09:00,
2013-07-29 22:10:00,63.5,57.4,30.23,WSW,257,0.0,0.0,80,-99.99,,,-99.99,VWS V14.01,2013-07-30 02:10:00,
2013-07-29 22:11:00,63.5,57.4,30.23,WSW,257,0.0,0.0,80,-99.99,,,-99.99,VWS V14.01,2013-07-30 02:11:00,
2013-07-29 22:12:00,63.4,57.3,30.23,WSW,257,0.0,0.0,80,-99.99,,,-99.99,VWS V14.01,2013-07-30 02:12:00,
2013-07-29 22:13:00,63.4,57.3,30.23,WSW,257,0.0,0.0,81,-99.99,,,-99.99,VWS V14.01,2013-07-30 02:13:00,
2013-07-29 22:14:00,63.3,57.3,30.23,WSW,257,0.0,0.0,81,-99.99,,,-99.99,VWS V14.01,2013-07-30 02:14:00,
2013-07-29 22:15:00,63.3,57.4,30.23,WSW,257,0.0,0.0,81,-99.99,,,-99.99,VWS V14.01,2013-07-30 02:15:00,
2013-07-29 22:16:00,63.3,57.4,30.23,WSW,257,0.0,0.0,81,-99.99,,,-99.99,VWS V14.01,2013-07-30 02:16:00,
2013-07-29 22:17:00,63.2,57.3,30.23,WSW,257,0.0,0.0,81,-99.99,,,-99.99,VWS V14.01,2013-07-30 02:17:00,
2013-07-29 22:18:00,63.2,57.4,30.23,WSW,257,0.0,0.0,81,-99.99,,,-99.99,VWS V14.01,2013-07-30 02:18:00,
2013-07-29 22:19:00,63.2,57.4,30.23,WSW,257,0.0,0.0,81,-99.99,,,-99.99,VWS V14.01,2013-07-30 02:19:00,
2013-07-29 22:20:00,63.1,57.3,30.23,WSW,257,0.0,0.0,82,-99.99,,,-99.99,VWS V14.01,2013-07-30 02:20:00,
2013-07-29 22:21:00,63.1,57.3,30.23,WSW,257,0.0,0.0,82,-99.99,,,-99.99,VWS V14.01,2013-07-30 02:21:00,
2013-07-29 22:22:00,63.1,57.4,30.23,WSW,257,0.0,0.0,82,-99.99,,,-99.99,VWS V14.01,2013-07-30 02:22:00,
2013-07-29 22:23:00,63.1,57.4,30.23,WSW,257,0.0,0.0,82,-99.99,,,-99.99,VWS V14.01,2013-07-30 02:23:00,
2013-07-29 22:24:00,63.1,57.5,30.23,WSW,257,0.0,0.0,82,-99.99,,,-99.99,VWS V14.01,2013-07-30 02:24:00,
2013-07-29 22:25:00,63.0,57.4,30.23,WSW,257,0.0,0.0,82,-99.99,,,-99.99,VWS V14.01,2013-07-30 02:25:00,
2013-07-29 22:26:00,63.0,57.4,30.23,WSW,257,0.0,0.0,82,-99.99,,,-99.99,VWS V14.01,2013-07-30 02:26:00,
2013-07-29 22:27:00,63.0,57.5,30.23,WSW,257,0.0,0.0,82,-99.99,,,-99.99,VWS V14.01,2013-07-30 02:27:00,
2013-07-29 22:28:00,63.0,57.5,30.23,WSW,257,0.0,0.0,82,-99.99,,,-99.99,VWS V14.01,2013-07-30 02:28:00,
2013-07-29 22:29:00,62.9,57.5,30.23,WSW,257,0.0,0.0,82,-99.99,,,-99.99,VWS V14.01,2013-07-30 02:29:00,
2013-07-29 22:30:00,62.9,57.5,30.23,WSW,257,0.0,0.0,82,-99.99,,,-99.99,VWS V14.01,2013-07-30 02:30:00,
2013-07-29 22:31:00,62.9,57.5,30.23,WSW,257,0.0,0.0,82,-99.99,,,-99.99,VWS V14.01,2013-07-30 02:31:00,
2013-07-29 22:32:00,62.9,57.5,30.23,WSW,257,0.0,0.0,82,-99.99,,,-99.99,VWS V14.01,2013-07-30 02:32:00,
2013-07-29 22:33:00,62.9,57.5,30.23,WSW,257,0.0,0.0,82,-99.99,,,-99.99,VWS V14.01,2013-07-30 02:33:00,
2013-07-29 22:34:00,62.9,57.5,30.23,WSW,257,0.0,0.0,82,-99.99,,,-99.99,VWS V14.01,2013-07-30 02:34:00,
2013-07-29 22:35:00,62.8,57.4,30.23,WSW,257,0.0,0.0,82,-99.99,,,-99.99,VWS V14.01,2013-07-30 02:35:00,
2013-07-29 22:36:00,62.7,57.4,30.23,WSW,257,0.0,0.0,83,-99.99,,,-99.99,VWS V14.01,2013-07-30 02:36:00,
2013-07-29 22:37:00,62.7,57.4,30.23,WSW,257,0.0,0.0,83,-99.99,,,-99.99,VWS V14.01,2013-07-30 02:37:00,
2013-07-29 22:38:00,62.7,57.5,30.23,WSW,257,0.0,0.0,83,-99.99,,,-99.99,VWS V14.01,2013-07-30 02:38:00,
2013-07-29 22:39:00,62.6,57.4,30.23,WSW,257,0.0,0.0,83,-99.99,,,-99.99,VWS V14.01,2013-07-30 02:39:00,
2013-07-29 22:40:00,62.5,57.4,30.23,WSW,257,0.0,0.0,83,-99.99,,,-99.99,VWS V14.01,2013-07-30 02:40:00,
2013-07-29 22:41:00,62.4,57.3,30.23,WSW,257,0.0,0.0,83,-99.99,,,-99.99,VWS V14.01,2013-07-30 02:41:00,
2013-07-29 22:42:00,62.4,57.3,30.23,WSW,257,0.0,0.0,83,-99.99,,,-99.99,VWS V14.01,2013-07-30 02:42:00,
2013-07-29 22:43:00,62.3,57.3,30.23,WSW,257,0.0,0.0,84,-99.99,,,-99.99,VWS V14.01,2013-07-30 02:43:00,
2013-07-29 22:44:00,62.3,57.3,30.23,WSW,257,0.0,0.0,84,-99.99,,,-99.99,VWS V14.01,2013-07-30 02:44:00,
2013-07-29 22:45:00,62.3,57.3,30.23,WSW,257,0.0,0.0,84,-99.99,,,-99.99,VWS V14.01,2013-07-30 02:45:00,
2013-07-29 22:46:00,62.2,57.3,30.23,WSW,257,0.0,0.0,84,-99.99,,,-99.99,VWS V14.01,2013-07-30 02:46:00,
2013-07-29 22:47:00,62.2,57.3,30.23,WSW,257,0.0,0.0,84,-99.99,,,-99.99,VWS V14.01,2013-07-30 02:47:00,
2013-07-29 22:48:00,62.1,57.3,30.23,WSW,257,0.0,0.0,84,-99.99,,,-99.99,VWS V14.01,2013-07-30 02:48:00,
2013-07-29 22:49:00,62.1,57.4,30.23,WSW,257,0.0,0.0,84,-99.99,,,-99.99,VWS V14.01,2013-07-30 02:49:00,
2013-07-29 22:50:00,62.1,57.4,30.23,WSW,257,0.0,0.0,85,-99.99,,,-99.99,VWS V14.01,2013-07-30 02:50:00,
2013-07-29 22:51:00,62.0,57.4,30.23,WSW,257,0.0,0.0,85,-99.99,,,-99.99,VWS V14.01,2013-07-30 02:51:00,
2013-07-29 22:52:00,62.1,57.5,30.23,WSW,257,0.0,0.0,85,-99.99,,,-99.99,VWS V14.01,2013-07-30 02:52:00,
2013-07-29 22:53:00,61.9,57.3,30.23,WSW,257,0.0,0.0,85,-99.99,,,-99.99,VWS V14.01,2013-07-30 02:53:00,
2013-07-29 22:54:00,61.8,57.2,30.23,WSW,257,0.0,0.0,85,-99.99,,,-99.99,VWS V14.01,2013-07-30 02:54:00,
2013-07-29 22:55:00,62.0,57.5,30.23,WSW,257,0.0,0.0,85,-99.99,,,-99.99,VWS V14.01,2013-07-30 02:55:00,
2013-07-29 22:56:00,61.8,57.3,30.23,WSW,257,0.0,0.0,85,-99.99,,,-99.99,VWS V14.01,2013-07-30 02:56:00,
2013-07-29 22:57:00,61.8,57.3,30.23,WSW,257,0.0,0.0,85,-99.99,,,-99.99,VWS V14.01,2013-07-30 02:57:00,
2013-07-29 22:58:00,61.8,57.3,30.23,WSW,257,0.0,0.0,85,-99.99,,,-99.99,VWS V14.01,2013-07-30 02:58:00,
2013-07-29 22:59:00,61.9,57.4,30.23,WSW,257,0.0,0.0,85,-99.99,,,-99.99,VWS V14.01,2013-07-30 02:59:00,
2013-07-29 23:00:00,61.9,57.5,30.23,WSW,257,0.0,0.0,85,-99.99,,,-99.99,VWS V14.01,2013-07-30 03:00:00,
2013-07-29 23:01:00,61.9,57.5,30.23,WSW,257,0.0,0.0,85,-99.99,,,-99.99,VWS V14.01,2013-07-30 03:01:00,
2013-07-29 23:02:00,61.8,57.4,30.23,WSW,257,0.0,0.0,85,-99.99,,,-99.99,VWS V14.01,2013-07-30 03:02:00,
2013-07-29 23:03:00,61.9,57.5,30.23,WSW,257,0.0,0.0,86,-99.99,,,-99.99,VWS V14.01,2013-07-30 03:03:00,
2013-07-29 23:04:00,61.9,57.5,30.23,WSW,257,0.0,0.0,86,-99.99,,,-99.99,VWS V14.01,2013-07-30 03:04:00,
2013-07-29 23:05:00,61.9,57.5,30.23,WSW,257,0.0,0.0,86,-99.99,,,-99.99,VWS V14.01,2013-07-30 03:05:00,
2013-07-29 23:06:00,61.9,57.5,30.23,WSW,257,0.0,0.0,86,-99.99,,,-99.99,VWS V14.01,2013-07-30 03:06:00,
2013-07-29 23:07:00,61.9,57.6,30.23,WSW,257,0.0,0.0,86,-99.99,,,-99.99,VWS V14.01,2013-07-30 03:07:00,
2013-07-29 23:08:00,61.8,57.5,30.23,WSW,257,0.0,0.0,86,-99.99,,,-99.99,VWS V14.01,2013-07-30 03:08:00,
2013-07-29 23:09:00,61.8,57.5,30.23,WSW,257,0.0,0.0,86,-99.99,,,-99.99,VWS V14.01,2013-07-30 03:09:00,
2013-07-29 23:10:00,61.8,57.5,30.23,WSW,257,0.0,0.0,86,-99.99,,,-99.99,VWS V14.01,2013-07-30 03:10:00,
2013-07-29 23:11:00,61.7,57.5,30.23,WSW,257,0.0,0.0,86,-99.99,,,-99.99,VWS V14.01,2013-07-30 03:11:00,
2013-07-29 23:12:00,61.7,57.5,30.23,WSW,257,0.0,0.0,86,-99.99,,,-99.99,VWS V14.01,2013-07-30 03:12:00,
2013-07-29 23:13:00,61.6,57.4,30.23,WSW,257,0.0,0.0,86,-99.99,,,-99.99,VWS V14.01,2013-07-30 03:13:00,